<?xml version="1.0" encoding="UTF-8" standalone="no" ?>
<gpx xmlns="http://www.topografix.com/GPX/1/1" creator="www.plotaroute.com" version="1.1"  xmlns:xsi="http://www.w3.org/2001/XMLSchema-instance" xsi:schemaLocation="http://www.topografix.com/GPX/1/1 http://www.topografix.com/GPX/1/1/gpx.xsd">
<metadata>
<desc>Route created on plotaroute.com</desc>
</metadata>
<wpt lat="31.66329" lon="34.93679">
<time>2021-04-08T01:47:15Z</time>
<name>FINISH</name>
<cmt>FINISH</cmt>
<desc>FINISH</desc>
<sym>Flag, Blue</sym>
</wpt>
<trk>
<name>Britania4-36km-700m</name>
<trkseg>
<trkpt lat="31.66324" lon="34.93659">
<ele>294</ele>
<time>2021-04-08T00:00:00Z</time></trkpt>
<trkpt lat="31.66323" lon="34.93643">
<ele>292</ele>
<time>2021-04-08T00:00:03Z</time></trkpt>
<trkpt lat="31.66334" lon="34.93641">
<ele>291</ele>
<time>2021-04-08T00:00:05Z</time></trkpt>
<trkpt lat="31.66344" lon="34.93635">
<ele>291</ele>
<time>2021-04-08T00:00:07Z</time></trkpt>
<trkpt lat="31.66371" lon="34.93603">
<ele>289</ele>
<time>2021-04-08T00:00:15Z</time></trkpt>
<trkpt lat="31.66391" lon="34.93586">
<ele>289</ele>
<time>2021-04-08T00:00:20Z</time></trkpt>
<trkpt lat="31.66413" lon="34.93571">
<ele>290</ele>
<time>2021-04-08T00:00:25Z</time></trkpt>
<trkpt lat="31.66418" lon="34.93565">
<ele>290</ele>
<time>2021-04-08T00:00:26Z</time></trkpt>
<trkpt lat="31.66426" lon="34.93554">
<ele>290</ele>
<time>2021-04-08T00:00:29Z</time></trkpt>
<trkpt lat="31.66432" lon="34.93538">
<ele>290</ele>
<time>2021-04-08T00:00:32Z</time></trkpt>
<trkpt lat="31.66433" lon="34.93525">
<ele>289</ele>
<time>2021-04-08T00:00:34Z</time></trkpt>
<trkpt lat="31.6644" lon="34.93471">
<ele>288</ele>
<time>2021-04-08T00:00:43Z</time></trkpt>
<trkpt lat="31.6645" lon="34.93436">
<ele>289</ele>
<time>2021-04-08T00:00:50Z</time></trkpt>
<trkpt lat="31.66455" lon="34.93421">
<ele>290</ele>
<time>2021-04-08T00:00:52Z</time></trkpt>
<trkpt lat="31.66471" lon="34.93389">
<ele>291</ele>
<time>2021-04-08T00:00:59Z</time></trkpt>
<trkpt lat="31.66494" lon="34.93348">
<ele>289</ele>
<time>2021-04-08T00:01:07Z</time></trkpt>
<trkpt lat="31.66508" lon="34.93319">
<ele>288</ele>
<time>2021-04-08T00:01:13Z</time></trkpt>
<trkpt lat="31.6654" lon="34.93241">
<ele>283</ele>
<time>2021-04-08T00:01:28Z</time></trkpt>
<trkpt lat="31.66547" lon="34.93227">
<ele>283</ele>
<time>2021-04-08T00:01:30Z</time></trkpt>
<trkpt lat="31.66553" lon="34.9322">
<ele>282</ele>
<time>2021-04-08T00:01:32Z</time></trkpt>
<trkpt lat="31.66563" lon="34.9321">
<ele>282</ele>
<time>2021-04-08T00:01:35Z</time></trkpt>
<trkpt lat="31.66586" lon="34.93198">
<ele>281</ele>
<time>2021-04-08T00:01:40Z</time></trkpt>
<trkpt lat="31.66612" lon="34.93194">
<ele>280</ele>
<time>2021-04-08T00:01:45Z</time></trkpt>
<trkpt lat="31.66626" lon="34.93195">
<ele>280</ele>
<time>2021-04-08T00:01:48Z</time></trkpt>
<trkpt lat="31.6665" lon="34.932">
<ele>279</ele>
<time>2021-04-08T00:01:53Z</time></trkpt>
<trkpt lat="31.66664" lon="34.93208">
<ele>279</ele>
<time>2021-04-08T00:01:56Z</time></trkpt>
<trkpt lat="31.66683" lon="34.93228">
<ele>279</ele>
<time>2021-04-08T00:02:01Z</time></trkpt>
<trkpt lat="31.66727" lon="34.93301">
<ele>281</ele>
<time>2021-04-08T00:02:16Z</time></trkpt>
<trkpt lat="31.66733" lon="34.93309">
<ele>281</ele>
<time>2021-04-08T00:02:18Z</time></trkpt>
<trkpt lat="31.66751" lon="34.93328">
<ele>281</ele>
<time>2021-04-08T00:02:23Z</time></trkpt>
<trkpt lat="31.66771" lon="34.93338">
<ele>280</ele>
<time>2021-04-08T00:02:27Z</time></trkpt>
<trkpt lat="31.66815" lon="34.93258">
<ele>276</ele>
<time>2021-04-08T00:02:43Z</time></trkpt>
<trkpt lat="31.66804" lon="34.93247">
<ele>276</ele>
<time>2021-04-08T00:02:46Z</time></trkpt>
<trkpt lat="31.6681" lon="34.93235">
<ele>277</ele>
<time>2021-04-08T00:02:49Z</time></trkpt>
<trkpt lat="31.66822" lon="34.93237">
<ele>278</ele>
<time>2021-04-08T00:02:51Z</time></trkpt>
<trkpt lat="31.66845" lon="34.93265">
<ele>277</ele>
<time>2021-04-08T00:02:58Z</time></trkpt>
<trkpt lat="31.6689" lon="34.93303">
<ele>275</ele>
<time>2021-04-08T00:03:09Z</time></trkpt>
<trkpt lat="31.6691" lon="34.93307">
<ele>275</ele>
<time>2021-04-08T00:03:13Z</time></trkpt>
<trkpt lat="31.66949" lon="34.93278">
<ele>281</ele>
<time>2021-04-08T00:03:22Z</time></trkpt>
<trkpt lat="31.66991" lon="34.93274">
<ele>284</ele>
<time>2021-04-08T00:03:31Z</time></trkpt>
<trkpt lat="31.67033" lon="34.93278">
<ele>284</ele>
<time>2021-04-08T00:03:39Z</time></trkpt>
<trkpt lat="31.67096" lon="34.93352">
<ele>280</ele>
<time>2021-04-08T00:03:57Z</time></trkpt>
<trkpt lat="31.67102" lon="34.9336">
<ele>280</ele>
<time>2021-04-08T00:03:59Z</time></trkpt>
<trkpt lat="31.6715" lon="34.934">
<ele>279</ele>
<time>2021-04-08T00:04:11Z</time></trkpt>
<trkpt lat="31.67182" lon="34.93421">
<ele>278</ele>
<time>2021-04-08T00:04:18Z</time></trkpt>
<trkpt lat="31.67196" lon="34.93429">
<ele>278</ele>
<time>2021-04-08T00:04:21Z</time></trkpt>
<trkpt lat="31.67217" lon="34.93433">
<ele>278</ele>
<time>2021-04-08T00:04:25Z</time></trkpt>
<trkpt lat="31.67255" lon="34.93432">
<ele>281</ele>
<time>2021-04-08T00:04:33Z</time></trkpt>
<trkpt lat="31.67263" lon="34.9343">
<ele>282</ele>
<time>2021-04-08T00:04:34Z</time></trkpt>
<trkpt lat="31.67274" lon="34.93421">
<ele>283</ele>
<time>2021-04-08T00:04:37Z</time></trkpt>
<trkpt lat="31.67279" lon="34.93411">
<ele>284</ele>
<time>2021-04-08T00:04:39Z</time></trkpt>
<trkpt lat="31.67317" lon="34.93378">
<ele>290</ele>
<time>2021-04-08T00:04:49Z</time></trkpt>
<trkpt lat="31.67381" lon="34.93309">
<ele>296</ele>
<time>2021-04-08T00:05:06Z</time></trkpt>
<trkpt lat="31.67423" lon="34.93263">
<ele>296</ele>
<time>2021-04-08T00:05:18Z</time></trkpt>
<trkpt lat="31.6746" lon="34.93217">
<ele>300</ele>
<time>2021-04-08T00:05:28Z</time></trkpt>
<trkpt lat="31.67483" lon="34.93191">
<ele>301</ele>
<time>2021-04-08T00:05:35Z</time></trkpt>
<trkpt lat="31.67503" lon="34.93157">
<ele>302</ele>
<time>2021-04-08T00:05:42Z</time></trkpt>
<trkpt lat="31.67503" lon="34.93137">
<ele>304</ele>
<time>2021-04-08T00:05:45Z</time></trkpt>
<trkpt lat="31.67512" lon="34.93099">
<ele>307</ele>
<time>2021-04-08T00:05:52Z</time></trkpt>
<trkpt lat="31.67534" lon="34.9308">
<ele>307</ele>
<time>2021-04-08T00:05:57Z</time></trkpt>
<trkpt lat="31.67566" lon="34.93064">
<ele>307</ele>
<time>2021-04-08T00:06:04Z</time></trkpt>
<trkpt lat="31.67595" lon="34.93043">
<ele>309</ele>
<time>2021-04-08T00:06:11Z</time></trkpt>
<trkpt lat="31.67624" lon="34.93047">
<ele>310</ele>
<time>2021-04-08T00:06:17Z</time></trkpt>
<trkpt lat="31.67654" lon="34.93048">
<ele>311</ele>
<time>2021-04-08T00:06:23Z</time></trkpt>
<trkpt lat="31.67687" lon="34.93045">
<ele>313</ele>
<time>2021-04-08T00:06:30Z</time></trkpt>
<trkpt lat="31.67711" lon="34.9304">
<ele>315</ele>
<time>2021-04-08T00:06:35Z</time></trkpt>
<trkpt lat="31.67731" lon="34.93045">
<ele>316</ele>
<time>2021-04-08T00:06:39Z</time></trkpt>
<trkpt lat="31.67749" lon="34.93062">
<ele>316</ele>
<time>2021-04-08T00:06:43Z</time></trkpt>
<trkpt lat="31.6776" lon="34.93061">
<ele>316</ele>
<time>2021-04-08T00:06:45Z</time></trkpt>
<trkpt lat="31.67761" lon="34.93017">
<ele>319</ele>
<time>2021-04-08T00:06:53Z</time></trkpt>
<trkpt lat="31.67757" lon="34.92985">
<ele>321</ele>
<time>2021-04-08T00:06:59Z</time></trkpt>
<trkpt lat="31.67766" lon="34.92896">
<ele>331</ele>
<time>2021-04-08T00:07:14Z</time></trkpt>
<trkpt lat="31.67762" lon="34.92822">
<ele>335</ele>
<time>2021-04-08T00:07:26Z</time></trkpt>
<trkpt lat="31.67762" lon="34.92789">
<ele>333</ele>
<time>2021-04-08T00:07:32Z</time></trkpt>
<trkpt lat="31.67767" lon="34.92761">
<ele>332</ele>
<time>2021-04-08T00:07:37Z</time></trkpt>
<trkpt lat="31.67771" lon="34.92762">
<ele>332</ele>
<time>2021-04-08T00:07:38Z</time></trkpt>
<trkpt lat="31.67771" lon="34.9276">
<ele>332</ele>
<time>2021-04-08T00:07:38Z</time></trkpt>
<trkpt lat="31.67709" lon="34.92738">
<ele>332</ele>
<time>2021-04-08T00:07:51Z</time></trkpt>
<trkpt lat="31.67685" lon="34.92732">
<ele>332</ele>
<time>2021-04-08T00:07:56Z</time></trkpt>
<trkpt lat="31.67653" lon="34.92715">
<ele>333</ele>
<time>2021-04-08T00:08:03Z</time></trkpt>
<trkpt lat="31.67652" lon="34.92715">
<ele>333</ele>
<time>2021-04-08T00:08:03Z</time></trkpt>
<trkpt lat="31.67625" lon="34.92702">
<ele>335</ele>
<time>2021-04-08T00:08:09Z</time></trkpt>
<trkpt lat="31.67615" lon="34.92688">
<ele>335</ele>
<time>2021-04-08T00:08:12Z</time></trkpt>
<trkpt lat="31.676" lon="34.9267">
<ele>335</ele>
<time>2021-04-08T00:08:16Z</time></trkpt>
<trkpt lat="31.67584" lon="34.9266">
<ele>336</ele>
<time>2021-04-08T00:08:20Z</time></trkpt>
<trkpt lat="31.67567" lon="34.92652">
<ele>336</ele>
<time>2021-04-08T00:08:24Z</time></trkpt>
<trkpt lat="31.67549" lon="34.92647">
<ele>336</ele>
<time>2021-04-08T00:08:27Z</time></trkpt>
<trkpt lat="31.67542" lon="34.92646">
<ele>336</ele>
<time>2021-04-08T00:08:29Z</time></trkpt>
<trkpt lat="31.6751" lon="34.92639">
<ele>336</ele>
<time>2021-04-08T00:08:35Z</time></trkpt>
<trkpt lat="31.67489" lon="34.92636">
<ele>337</ele>
<time>2021-04-08T00:08:40Z</time></trkpt>
<trkpt lat="31.67469" lon="34.92625">
<ele>337</ele>
<time>2021-04-08T00:08:44Z</time></trkpt>
<trkpt lat="31.67441" lon="34.92599">
<ele>335</ele>
<time>2021-04-08T00:08:51Z</time></trkpt>
<trkpt lat="31.67419" lon="34.9257">
<ele>332</ele>
<time>2021-04-08T00:08:58Z</time></trkpt>
<trkpt lat="31.67408" lon="34.92559">
<ele>333</ele>
<time>2021-04-08T00:09:01Z</time></trkpt>
<trkpt lat="31.674" lon="34.92545">
<ele>332</ele>
<time>2021-04-08T00:09:04Z</time></trkpt>
<trkpt lat="31.67397" lon="34.92537">
<ele>332</ele>
<time>2021-04-08T00:09:05Z</time></trkpt>
<trkpt lat="31.67391" lon="34.92486">
<ele>326</ele>
<time>2021-04-08T00:09:14Z</time></trkpt>
<trkpt lat="31.67387" lon="34.92474">
<ele>325</ele>
<time>2021-04-08T00:09:16Z</time></trkpt>
<trkpt lat="31.67381" lon="34.92463">
<ele>325</ele>
<time>2021-04-08T00:09:18Z</time></trkpt>
<trkpt lat="31.67373" lon="34.92455">
<ele>325</ele>
<time>2021-04-08T00:09:20Z</time></trkpt>
<trkpt lat="31.67357" lon="34.92447">
<ele>325</ele>
<time>2021-04-08T00:09:24Z</time></trkpt>
<trkpt lat="31.67317" lon="34.92444">
<ele>327</ele>
<time>2021-04-08T00:09:32Z</time></trkpt>
<trkpt lat="31.67205" lon="34.92459">
<ele>330</ele>
<time>2021-04-08T00:09:55Z</time></trkpt>
<trkpt lat="31.67166" lon="34.92482">
<ele>332</ele>
<time>2021-04-08T00:10:03Z</time></trkpt>
<trkpt lat="31.67162" lon="34.92515">
<ele>334</ele>
<time>2021-04-08T00:10:09Z</time></trkpt>
<trkpt lat="31.67174" lon="34.92575">
<ele>338</ele>
<time>2021-04-08T00:10:19Z</time></trkpt>
<trkpt lat="31.6719" lon="34.92598">
<ele>343</ele>
<time>2021-04-08T00:10:25Z</time></trkpt>
<trkpt lat="31.67193" lon="34.92608">
<ele>344</ele>
<time>2021-04-08T00:10:26Z</time></trkpt>
<trkpt lat="31.67189" lon="34.92628">
<ele>345</ele>
<time>2021-04-08T00:10:30Z</time></trkpt>
<trkpt lat="31.6718" lon="34.92645">
<ele>344</ele>
<time>2021-04-08T00:10:33Z</time></trkpt>
<trkpt lat="31.6717" lon="34.92661">
<ele>342</ele>
<time>2021-04-08T00:10:37Z</time></trkpt>
<trkpt lat="31.67157" lon="34.92658">
<ele>341</ele>
<time>2021-04-08T00:10:39Z</time></trkpt>
<trkpt lat="31.6713" lon="34.92648">
<ele>338</ele>
<time>2021-04-08T00:10:45Z</time></trkpt>
<trkpt lat="31.67125" lon="34.92641">
<ele>337</ele>
<time>2021-04-08T00:10:47Z</time></trkpt>
<trkpt lat="31.67125" lon="34.9264">
<ele>337</ele>
<time>2021-04-08T00:10:47Z</time></trkpt>
<trkpt lat="31.67111" lon="34.92619">
<ele>333</ele>
<time>2021-04-08T00:10:51Z</time></trkpt>
<trkpt lat="31.67088" lon="34.926">
<ele>327</ele>
<time>2021-04-08T00:10:57Z</time></trkpt>
<trkpt lat="31.67003" lon="34.92583">
<ele>320</ele>
<time>2021-04-08T00:11:14Z</time></trkpt>
<trkpt lat="31.66979" lon="34.92589">
<ele>322</ele>
<time>2021-04-08T00:11:19Z</time></trkpt>
<trkpt lat="31.66932" lon="34.92599">
<ele>324</ele>
<time>2021-04-08T00:11:29Z</time></trkpt>
<trkpt lat="31.66903" lon="34.92622">
<ele>324</ele>
<time>2021-04-08T00:11:36Z</time></trkpt>
<trkpt lat="31.66904" lon="34.92606">
<ele>325</ele>
<time>2021-04-08T00:11:38Z</time></trkpt>
<trkpt lat="31.66872" lon="34.92384">
<ele>334</ele>
<time>2021-04-08T00:12:17Z</time></trkpt>
<trkpt lat="31.66865" lon="34.92324">
<ele>338</ele>
<time>2021-04-08T00:12:27Z</time></trkpt>
<trkpt lat="31.66864" lon="34.92202">
<ele>340</ele>
<time>2021-04-08T00:12:48Z</time></trkpt>
<trkpt lat="31.66862" lon="34.92185">
<ele>340</ele>
<time>2021-04-08T00:12:51Z</time></trkpt>
<trkpt lat="31.66856" lon="34.92161">
<ele>341</ele>
<time>2021-04-08T00:12:55Z</time></trkpt>
<trkpt lat="31.66845" lon="34.92139">
<ele>341</ele>
<time>2021-04-08T00:12:59Z</time></trkpt>
<trkpt lat="31.66829" lon="34.92116">
<ele>341</ele>
<time>2021-04-08T00:13:05Z</time></trkpt>
<trkpt lat="31.66825" lon="34.92112">
<ele>341</ele>
<time>2021-04-08T00:13:06Z</time></trkpt>
<trkpt lat="31.66825" lon="34.92113">
<ele>341</ele>
<time>2021-04-08T00:13:06Z</time></trkpt>
<trkpt lat="31.66819" lon="34.92105">
<ele>340</ele>
<time>2021-04-08T00:13:08Z</time></trkpt>
<trkpt lat="31.66806" lon="34.92098">
<ele>339</ele>
<time>2021-04-08T00:13:10Z</time></trkpt>
<trkpt lat="31.66798" lon="34.92096">
<ele>339</ele>
<time>2021-04-08T00:13:12Z</time></trkpt>
<trkpt lat="31.66787" lon="34.92101">
<ele>340</ele>
<time>2021-04-08T00:13:14Z</time></trkpt>
<trkpt lat="31.66767" lon="34.92132">
<ele>346</ele>
<time>2021-04-08T00:13:21Z</time></trkpt>
<trkpt lat="31.66756" lon="34.92154">
<ele>350</ele>
<time>2021-04-08T00:13:25Z</time></trkpt>
<trkpt lat="31.66743" lon="34.92172">
<ele>353</ele>
<time>2021-04-08T00:13:29Z</time></trkpt>
<trkpt lat="31.66726" lon="34.92181">
<ele>355</ele>
<time>2021-04-08T00:13:33Z</time></trkpt>
<trkpt lat="31.66708" lon="34.92183">
<ele>356</ele>
<time>2021-04-08T00:13:37Z</time></trkpt>
<trkpt lat="31.66694" lon="34.92178">
<ele>356</ele>
<time>2021-04-08T00:13:40Z</time></trkpt>
<trkpt lat="31.66692" lon="34.92178">
<ele>356</ele>
<time>2021-04-08T00:13:40Z</time></trkpt>
<trkpt lat="31.66679" lon="34.92165">
<ele>355</ele>
<time>2021-04-08T00:13:44Z</time></trkpt>
<trkpt lat="31.66646" lon="34.92135">
<ele>349</ele>
<time>2021-04-08T00:13:52Z</time></trkpt>
<trkpt lat="31.66633" lon="34.92122">
<ele>347</ele>
<time>2021-04-08T00:13:55Z</time></trkpt>
<trkpt lat="31.66603" lon="34.9211">
<ele>347</ele>
<time>2021-04-08T00:14:02Z</time></trkpt>
<trkpt lat="31.66545" lon="34.92099">
<ele>345</ele>
<time>2021-04-08T00:14:13Z</time></trkpt>
<trkpt lat="31.66534" lon="34.92094">
<ele>344</ele>
<time>2021-04-08T00:14:16Z</time></trkpt>
<trkpt lat="31.66533" lon="34.92094">
<ele>344</ele>
<time>2021-04-08T00:14:16Z</time></trkpt>
<trkpt lat="31.66522" lon="34.9209">
<ele>344</ele>
<time>2021-04-08T00:14:18Z</time></trkpt>
<trkpt lat="31.6649" lon="34.92083">
<ele>341</ele>
<time>2021-04-08T00:14:25Z</time></trkpt>
<trkpt lat="31.66478" lon="34.92086">
<ele>340</ele>
<time>2021-04-08T00:14:27Z</time></trkpt>
<trkpt lat="31.66471" lon="34.92091">
<ele>339</ele>
<time>2021-04-08T00:14:29Z</time></trkpt>
<trkpt lat="31.66466" lon="34.92099">
<ele>339</ele>
<time>2021-04-08T00:14:31Z</time></trkpt>
<trkpt lat="31.66464" lon="34.92108">
<ele>339</ele>
<time>2021-04-08T00:14:32Z</time></trkpt>
<trkpt lat="31.66465" lon="34.92118">
<ele>341</ele>
<time>2021-04-08T00:14:34Z</time></trkpt>
<trkpt lat="31.66492" lon="34.92189">
<ele>353</ele>
<time>2021-04-08T00:14:47Z</time></trkpt>
<trkpt lat="31.66486" lon="34.92216">
<ele>354</ele>
<time>2021-04-08T00:14:52Z</time></trkpt>
<trkpt lat="31.66467" lon="34.9222">
<ele>352</ele>
<time>2021-04-08T00:14:56Z</time></trkpt>
<trkpt lat="31.66414" lon="34.92216">
<ele>345</ele>
<time>2021-04-08T00:15:07Z</time></trkpt>
<trkpt lat="31.66397" lon="34.92214">
<ele>344</ele>
<time>2021-04-08T00:15:10Z</time></trkpt>
<trkpt lat="31.66387" lon="34.9221">
<ele>343</ele>
<time>2021-04-08T00:15:12Z</time></trkpt>
<trkpt lat="31.66361" lon="34.92196">
<ele>339</ele>
<time>2021-04-08T00:15:18Z</time></trkpt>
<trkpt lat="31.66351" lon="34.92194">
<ele>338</ele>
<time>2021-04-08T00:15:20Z</time></trkpt>
<trkpt lat="31.66319" lon="34.92202">
<ele>339</ele>
<time>2021-04-08T00:15:26Z</time></trkpt>
<trkpt lat="31.663" lon="34.9221">
<ele>340</ele>
<time>2021-04-08T00:15:30Z</time></trkpt>
<trkpt lat="31.66285" lon="34.92186">
<ele>339</ele>
<time>2021-04-08T00:15:35Z</time></trkpt>
<trkpt lat="31.66274" lon="34.92135">
<ele>335</ele>
<time>2021-04-08T00:15:44Z</time></trkpt>
<trkpt lat="31.66247" lon="34.92077">
<ele>336</ele>
<time>2021-04-08T00:15:56Z</time></trkpt>
<trkpt lat="31.66247" lon="34.92076">
<ele>336</ele>
<time>2021-04-08T00:15:56Z</time></trkpt>
<trkpt lat="31.66233" lon="34.92048">
<ele>337</ele>
<time>2021-04-08T00:16:01Z</time></trkpt>
<trkpt lat="31.66225" lon="34.92019">
<ele>336</ele>
<time>2021-04-08T00:16:07Z</time></trkpt>
<trkpt lat="31.66202" lon="34.91983">
<ele>338</ele>
<time>2021-04-08T00:16:14Z</time></trkpt>
<trkpt lat="31.66196" lon="34.9197">
<ele>337</ele>
<time>2021-04-08T00:16:17Z</time></trkpt>
<trkpt lat="31.66188" lon="34.91964">
<ele>338</ele>
<time>2021-04-08T00:16:19Z</time></trkpt>
<trkpt lat="31.66163" lon="34.91953">
<ele>340</ele>
<time>2021-04-08T00:16:24Z</time></trkpt>
<trkpt lat="31.66162" lon="34.91953">
<ele>340</ele>
<time>2021-04-08T00:16:24Z</time></trkpt>
<trkpt lat="31.66157" lon="34.91951">
<ele>339</ele>
<time>2021-04-08T00:16:25Z</time></trkpt>
<trkpt lat="31.66147" lon="34.91951">
<ele>339</ele>
<time>2021-04-08T00:16:27Z</time></trkpt>
<trkpt lat="31.6614" lon="34.91959">
<ele>339</ele>
<time>2021-04-08T00:16:29Z</time></trkpt>
<trkpt lat="31.66148" lon="34.91984">
<ele>344</ele>
<time>2021-04-08T00:16:34Z</time></trkpt>
<trkpt lat="31.66151" lon="34.92011">
<ele>348</ele>
<time>2021-04-08T00:16:39Z</time></trkpt>
<trkpt lat="31.66154" lon="34.92067">
<ele>356</ele>
<time>2021-04-08T00:16:48Z</time></trkpt>
<trkpt lat="31.66142" lon="34.92094">
<ele>359</ele>
<time>2021-04-08T00:16:53Z</time></trkpt>
<trkpt lat="31.6613" lon="34.92112">
<ele>362</ele>
<time>2021-04-08T00:16:57Z</time></trkpt>
<trkpt lat="31.66107" lon="34.92117">
<ele>365</ele>
<time>2021-04-08T00:17:02Z</time></trkpt>
<trkpt lat="31.66082" lon="34.9212">
<ele>368</ele>
<time>2021-04-08T00:17:07Z</time></trkpt>
<trkpt lat="31.66015" lon="34.92126">
<ele>374</ele>
<time>2021-04-08T00:17:20Z</time></trkpt>
<trkpt lat="31.65973" lon="34.92108">
<ele>373</ele>
<time>2021-04-08T00:17:29Z</time></trkpt>
<trkpt lat="31.6593" lon="34.92094">
<ele>374</ele>
<time>2021-04-08T00:17:38Z</time></trkpt>
<trkpt lat="31.65913" lon="34.92098">
<ele>375</ele>
<time>2021-04-08T00:17:42Z</time></trkpt>
<trkpt lat="31.65903" lon="34.92108">
<ele>375</ele>
<time>2021-04-08T00:17:44Z</time></trkpt>
<trkpt lat="31.65893" lon="34.92122">
<ele>375</ele>
<time>2021-04-08T00:17:47Z</time></trkpt>
<trkpt lat="31.6587" lon="34.92175">
<ele>376</ele>
<time>2021-04-08T00:17:58Z</time></trkpt>
<trkpt lat="31.65804" lon="34.92244">
<ele>366</ele>
<time>2021-04-08T00:18:15Z</time></trkpt>
<trkpt lat="31.65785" lon="34.92266">
<ele>362</ele>
<time>2021-04-08T00:18:21Z</time></trkpt>
<trkpt lat="31.65779" lon="34.92271">
<ele>360</ele>
<time>2021-04-08T00:18:22Z</time></trkpt>
<trkpt lat="31.65772" lon="34.92273">
<ele>359</ele>
<time>2021-04-08T00:18:24Z</time></trkpt>
<trkpt lat="31.65749" lon="34.92263">
<ele>357</ele>
<time>2021-04-08T00:18:29Z</time></trkpt>
<trkpt lat="31.65732" lon="34.92264">
<ele>358</ele>
<time>2021-04-08T00:18:32Z</time></trkpt>
<trkpt lat="31.65708" lon="34.92262">
<ele>358</ele>
<time>2021-04-08T00:18:37Z</time></trkpt>
<trkpt lat="31.65679" lon="34.92252">
<ele>360</ele>
<time>2021-04-08T00:18:43Z</time></trkpt>
<trkpt lat="31.65671" lon="34.92247">
<ele>360</ele>
<time>2021-04-08T00:18:45Z</time></trkpt>
<trkpt lat="31.65671" lon="34.92246">
<ele>359</ele>
<time>2021-04-08T00:18:45Z</time></trkpt>
<trkpt lat="31.65643" lon="34.92229">
<ele>359</ele>
<time>2021-04-08T00:18:51Z</time></trkpt>
<trkpt lat="31.65624" lon="34.9222">
<ele>360</ele>
<time>2021-04-08T00:18:55Z</time></trkpt>
<trkpt lat="31.65495" lon="34.9218">
<ele>371</ele>
<time>2021-04-08T00:19:22Z</time></trkpt>
<trkpt lat="31.65442" lon="34.92155">
<ele>377</ele>
<time>2021-04-08T00:19:33Z</time></trkpt>
<trkpt lat="31.65437" lon="34.92155">
<ele>377</ele>
<time>2021-04-08T00:19:34Z</time></trkpt>
<trkpt lat="31.6543" lon="34.92159">
<ele>378</ele>
<time>2021-04-08T00:19:36Z</time></trkpt>
<trkpt lat="31.65424" lon="34.92167">
<ele>379</ele>
<time>2021-04-08T00:19:38Z</time></trkpt>
<trkpt lat="31.65406" lon="34.92135">
<ele>379</ele>
<time>2021-04-08T00:19:44Z</time></trkpt>
<trkpt lat="31.65405" lon="34.92135">
<ele>379</ele>
<time>2021-04-08T00:19:45Z</time></trkpt>
<trkpt lat="31.65383" lon="34.92096">
<ele>377</ele>
<time>2021-04-08T00:19:52Z</time></trkpt>
<trkpt lat="31.65404" lon="34.92048">
<ele>377</ele>
<time>2021-04-08T00:20:02Z</time></trkpt>
<trkpt lat="31.65367" lon="34.91876">
<ele>379</ele>
<time>2021-04-08T00:20:32Z</time></trkpt>
<trkpt lat="31.65316" lon="34.9185">
<ele>378</ele>
<time>2021-04-08T00:20:43Z</time></trkpt>
<trkpt lat="31.64914" lon="34.91704">
<ele>380</ele>
<time>2021-04-08T00:22:07Z</time></trkpt>
<trkpt lat="31.64728" lon="34.91618">
<ele>379</ele>
<time>2021-04-08T00:22:47Z</time></trkpt>
<trkpt lat="31.64728" lon="34.91617">
<ele>379</ele>
<time>2021-04-08T00:22:48Z</time></trkpt>
<trkpt lat="31.64723" lon="34.916">
<ele>377</ele>
<time>2021-04-08T00:22:51Z</time></trkpt>
<trkpt lat="31.64684" lon="34.91625">
<ele>376</ele>
<time>2021-04-08T00:23:00Z</time></trkpt>
<trkpt lat="31.64674" lon="34.91629">
<ele>376</ele>
<time>2021-04-08T00:23:02Z</time></trkpt>
<trkpt lat="31.64641" lon="34.91634">
<ele>376</ele>
<time>2021-04-08T00:23:08Z</time></trkpt>
<trkpt lat="31.6463" lon="34.91634">
<ele>375</ele>
<time>2021-04-08T00:23:11Z</time></trkpt>
<trkpt lat="31.64609" lon="34.9163">
<ele>374</ele>
<time>2021-04-08T00:23:15Z</time></trkpt>
<trkpt lat="31.64564" lon="34.9163">
<ele>374</ele>
<time>2021-04-08T00:23:24Z</time></trkpt>
<trkpt lat="31.64554" lon="34.91635">
<ele>376</ele>
<time>2021-04-08T00:23:26Z</time></trkpt>
<trkpt lat="31.64547" lon="34.9165">
<ele>378</ele>
<time>2021-04-08T00:23:29Z</time></trkpt>
<trkpt lat="31.64498" lon="34.91644">
<ele>378</ele>
<time>2021-04-08T00:23:39Z</time></trkpt>
<trkpt lat="31.64483" lon="34.9164">
<ele>377</ele>
<time>2021-04-08T00:23:42Z</time></trkpt>
<trkpt lat="31.64475" lon="34.91632">
<ele>376</ele>
<time>2021-04-08T00:23:44Z</time></trkpt>
<trkpt lat="31.64465" lon="34.91629">
<ele>376</ele>
<time>2021-04-08T00:23:46Z</time></trkpt>
<trkpt lat="31.64442" lon="34.91627">
<ele>376</ele>
<time>2021-04-08T00:23:51Z</time></trkpt>
<trkpt lat="31.64416" lon="34.91617">
<ele>375</ele>
<time>2021-04-08T00:23:56Z</time></trkpt>
<trkpt lat="31.6438" lon="34.9161">
<ele>376</ele>
<time>2021-04-08T00:24:04Z</time></trkpt>
<trkpt lat="31.64361" lon="34.91603">
<ele>377</ele>
<time>2021-04-08T00:24:07Z</time></trkpt>
<trkpt lat="31.6434" lon="34.91593">
<ele>378</ele>
<time>2021-04-08T00:24:12Z</time></trkpt>
<trkpt lat="31.64318" lon="34.91591">
<ele>380</ele>
<time>2021-04-08T00:24:16Z</time></trkpt>
<trkpt lat="31.64277" lon="34.9159">
<ele>382</ele>
<time>2021-04-08T00:24:25Z</time></trkpt>
<trkpt lat="31.64269" lon="34.91585">
<ele>383</ele>
<time>2021-04-08T00:24:26Z</time></trkpt>
<trkpt lat="31.64267" lon="34.91573">
<ele>383</ele>
<time>2021-04-08T00:24:29Z</time></trkpt>
<trkpt lat="31.64271" lon="34.9155">
<ele>382</ele>
<time>2021-04-08T00:24:33Z</time></trkpt>
<trkpt lat="31.64269" lon="34.91538">
<ele>382</ele>
<time>2021-04-08T00:24:35Z</time></trkpt>
<trkpt lat="31.64264" lon="34.91526">
<ele>382</ele>
<time>2021-04-08T00:24:37Z</time></trkpt>
<trkpt lat="31.64259" lon="34.91519">
<ele>382</ele>
<time>2021-04-08T00:24:39Z</time></trkpt>
<trkpt lat="31.6425" lon="34.91514">
<ele>382</ele>
<time>2021-04-08T00:24:40Z</time></trkpt>
<trkpt lat="31.64237" lon="34.9151">
<ele>383</ele>
<time>2021-04-08T00:24:43Z</time></trkpt>
<trkpt lat="31.64188" lon="34.915">
<ele>385</ele>
<time>2021-04-08T00:24:53Z</time></trkpt>
<trkpt lat="31.64144" lon="34.91488">
<ele>386</ele>
<time>2021-04-08T00:25:02Z</time></trkpt>
<trkpt lat="31.64112" lon="34.91474">
<ele>386</ele>
<time>2021-04-08T00:25:09Z</time></trkpt>
<trkpt lat="31.64044" lon="34.91436">
<ele>388</ele>
<time>2021-04-08T00:25:24Z</time></trkpt>
<trkpt lat="31.64029" lon="34.91429">
<ele>389</ele>
<time>2021-04-08T00:25:27Z</time></trkpt>
<trkpt lat="31.64019" lon="34.91426">
<ele>389</ele>
<time>2021-04-08T00:25:29Z</time></trkpt>
<trkpt lat="31.64012" lon="34.91427">
<ele>389</ele>
<time>2021-04-08T00:25:31Z</time></trkpt>
<trkpt lat="31.6398" lon="34.91443">
<ele>390</ele>
<time>2021-04-08T00:25:38Z</time></trkpt>
<trkpt lat="31.63943" lon="34.9145">
<ele>390</ele>
<time>2021-04-08T00:25:45Z</time></trkpt>
<trkpt lat="31.63901" lon="34.91468">
<ele>389</ele>
<time>2021-04-08T00:25:54Z</time></trkpt>
<trkpt lat="31.63866" lon="34.91488">
<ele>388</ele>
<time>2021-04-08T00:26:02Z</time></trkpt>
<trkpt lat="31.63854" lon="34.91492">
<ele>387</ele>
<time>2021-04-08T00:26:05Z</time></trkpt>
<trkpt lat="31.63846" lon="34.91483">
<ele>386</ele>
<time>2021-04-08T00:26:07Z</time></trkpt>
<trkpt lat="31.63848" lon="34.91434">
<ele>384</ele>
<time>2021-04-08T00:26:15Z</time></trkpt>
<trkpt lat="31.63852" lon="34.91422">
<ele>384</ele>
<time>2021-04-08T00:26:17Z</time></trkpt>
<trkpt lat="31.63864" lon="34.91409">
<ele>382</ele>
<time>2021-04-08T00:26:21Z</time></trkpt>
<trkpt lat="31.63896" lon="34.9139">
<ele>380</ele>
<time>2021-04-08T00:26:28Z</time></trkpt>
<trkpt lat="31.63913" lon="34.91386">
<ele>381</ele>
<time>2021-04-08T00:26:31Z</time></trkpt>
<trkpt lat="31.63898" lon="34.91389">
<ele>380</ele>
<time>2021-04-08T00:26:34Z</time></trkpt>
<trkpt lat="31.63887" lon="34.91383">
<ele>378</ele>
<time>2021-04-08T00:26:37Z</time></trkpt>
<trkpt lat="31.63853" lon="34.91374">
<ele>374</ele>
<time>2021-04-08T00:26:44Z</time></trkpt>
<trkpt lat="31.63829" lon="34.91372">
<ele>372</ele>
<time>2021-04-08T00:26:49Z</time></trkpt>
<trkpt lat="31.63817" lon="34.91372">
<ele>371</ele>
<time>2021-04-08T00:26:51Z</time></trkpt>
<trkpt lat="31.63782" lon="34.91378">
<ele>370</ele>
<time>2021-04-08T00:26:58Z</time></trkpt>
<trkpt lat="31.63766" lon="34.91378">
<ele>369</ele>
<time>2021-04-08T00:27:01Z</time></trkpt>
<trkpt lat="31.63752" lon="34.91375">
<ele>367</ele>
<time>2021-04-08T00:27:04Z</time></trkpt>
<trkpt lat="31.63786" lon="34.91357">
<ele>366</ele>
<time>2021-04-08T00:27:12Z</time></trkpt>
<trkpt lat="31.63821" lon="34.91319">
<ele>360</ele>
<time>2021-04-08T00:27:21Z</time></trkpt>
<trkpt lat="31.63826" lon="34.91313">
<ele>358</ele>
<time>2021-04-08T00:27:23Z</time></trkpt>
<trkpt lat="31.63859" lon="34.91288">
<ele>354</ele>
<time>2021-04-08T00:27:30Z</time></trkpt>
<trkpt lat="31.63868" lon="34.91285">
<ele>354</ele>
<time>2021-04-08T00:27:32Z</time></trkpt>
<trkpt lat="31.6388" lon="34.91286">
<ele>355</ele>
<time>2021-04-08T00:27:35Z</time></trkpt>
<trkpt lat="31.63887" lon="34.91289">
<ele>356</ele>
<time>2021-04-08T00:27:36Z</time></trkpt>
<trkpt lat="31.63902" lon="34.91289">
<ele>357</ele>
<time>2021-04-08T00:27:39Z</time></trkpt>
<trkpt lat="31.63914" lon="34.91268">
<ele>352</ele>
<time>2021-04-08T00:27:44Z</time></trkpt>
<trkpt lat="31.63928" lon="34.9123">
<ele>346</ele>
<time>2021-04-08T00:27:51Z</time></trkpt>
<trkpt lat="31.63928" lon="34.91224">
<ele>345</ele>
<time>2021-04-08T00:27:52Z</time></trkpt>
<trkpt lat="31.63921" lon="34.91216">
<ele>342</ele>
<time>2021-04-08T00:27:54Z</time></trkpt>
<trkpt lat="31.63916" lon="34.91215">
<ele>341</ele>
<time>2021-04-08T00:27:55Z</time></trkpt>
<trkpt lat="31.63907" lon="34.91217">
<ele>341</ele>
<time>2021-04-08T00:27:56Z</time></trkpt>
<trkpt lat="31.63896" lon="34.91223">
<ele>342</ele>
<time>2021-04-08T00:27:59Z</time></trkpt>
<trkpt lat="31.63888" lon="34.9123">
<ele>344</ele>
<time>2021-04-08T00:28:01Z</time></trkpt>
<trkpt lat="31.6388" lon="34.91233">
<ele>344</ele>
<time>2021-04-08T00:28:03Z</time></trkpt>
<trkpt lat="31.63865" lon="34.9123">
<ele>343</ele>
<time>2021-04-08T00:28:06Z</time></trkpt>
<trkpt lat="31.63843" lon="34.91229">
<ele>343</ele>
<time>2021-04-08T00:28:10Z</time></trkpt>
<trkpt lat="31.63853" lon="34.91217">
<ele>342</ele>
<time>2021-04-08T00:28:13Z</time></trkpt>
<trkpt lat="31.6387" lon="34.9121">
<ele>341</ele>
<time>2021-04-08T00:28:17Z</time></trkpt>
<trkpt lat="31.63874" lon="34.91207">
<ele>340</ele>
<time>2021-04-08T00:28:17Z</time></trkpt>
<trkpt lat="31.63879" lon="34.91198">
<ele>339</ele>
<time>2021-04-08T00:28:19Z</time></trkpt>
<trkpt lat="31.63887" lon="34.91161">
<ele>333</ele>
<time>2021-04-08T00:28:26Z</time></trkpt>
<trkpt lat="31.63918" lon="34.91085">
<ele>319</ele>
<time>2021-04-08T00:28:40Z</time></trkpt>
<trkpt lat="31.63923" lon="34.91072">
<ele>319</ele>
<time>2021-04-08T00:28:43Z</time></trkpt>
<trkpt lat="31.63936" lon="34.91021">
<ele>317</ele>
<time>2021-04-08T00:28:52Z</time></trkpt>
<trkpt lat="31.63941" lon="34.90988">
<ele>315</ele>
<time>2021-04-08T00:28:57Z</time></trkpt>
<trkpt lat="31.63945" lon="34.90936">
<ele>312</ele>
<time>2021-04-08T00:29:06Z</time></trkpt>
<trkpt lat="31.63945" lon="34.90921">
<ele>311</ele>
<time>2021-04-08T00:29:09Z</time></trkpt>
<trkpt lat="31.63943" lon="34.90915">
<ele>310</ele>
<time>2021-04-08T00:29:10Z</time></trkpt>
<trkpt lat="31.63944" lon="34.90841">
<ele>306</ele>
<time>2021-04-08T00:29:23Z</time></trkpt>
<trkpt lat="31.63941" lon="34.90816">
<ele>304</ele>
<time>2021-04-08T00:29:27Z</time></trkpt>
<trkpt lat="31.63941" lon="34.90795">
<ele>303</ele>
<time>2021-04-08T00:29:30Z</time></trkpt>
<trkpt lat="31.63938" lon="34.90753">
<ele>300</ele>
<time>2021-04-08T00:29:38Z</time></trkpt>
<trkpt lat="31.63932" lon="34.90722">
<ele>298</ele>
<time>2021-04-08T00:29:43Z</time></trkpt>
<trkpt lat="31.63927" lon="34.90674">
<ele>295</ele>
<time>2021-04-08T00:29:51Z</time></trkpt>
<trkpt lat="31.63927" lon="34.90638">
<ele>293</ele>
<time>2021-04-08T00:29:57Z</time></trkpt>
<trkpt lat="31.63936" lon="34.90576">
<ele>292</ele>
<time>2021-04-08T00:30:08Z</time></trkpt>
<trkpt lat="31.6395" lon="34.90516">
<ele>291</ele>
<time>2021-04-08T00:30:19Z</time></trkpt>
<trkpt lat="31.63961" lon="34.90482">
<ele>289</ele>
<time>2021-04-08T00:30:25Z</time></trkpt>
<trkpt lat="31.63986" lon="34.90417">
<ele>284</ele>
<time>2021-04-08T00:30:37Z</time></trkpt>
<trkpt lat="31.63998" lon="34.90371">
<ele>282</ele>
<time>2021-04-08T00:30:45Z</time></trkpt>
<trkpt lat="31.63998" lon="34.90358">
<ele>282</ele>
<time>2021-04-08T00:30:48Z</time></trkpt>
<trkpt lat="31.63996" lon="34.90348">
<ele>282</ele>
<time>2021-04-08T00:30:49Z</time></trkpt>
<trkpt lat="31.63992" lon="34.90341">
<ele>282</ele>
<time>2021-04-08T00:30:51Z</time></trkpt>
<trkpt lat="31.63984" lon="34.90331">
<ele>283</ele>
<time>2021-04-08T00:30:53Z</time></trkpt>
<trkpt lat="31.63964" lon="34.90318">
<ele>286</ele>
<time>2021-04-08T00:30:58Z</time></trkpt>
<trkpt lat="31.63912" lon="34.90298">
<ele>292</ele>
<time>2021-04-08T00:31:09Z</time></trkpt>
<trkpt lat="31.63887" lon="34.90286">
<ele>293</ele>
<time>2021-04-08T00:31:14Z</time></trkpt>
<trkpt lat="31.6387" lon="34.90285">
<ele>294</ele>
<time>2021-04-08T00:31:18Z</time></trkpt>
<trkpt lat="31.63837" lon="34.90289">
<ele>295</ele>
<time>2021-04-08T00:31:24Z</time></trkpt>
<trkpt lat="31.63829" lon="34.90286">
<ele>295</ele>
<time>2021-04-08T00:31:26Z</time></trkpt>
<trkpt lat="31.63817" lon="34.90273">
<ele>294</ele>
<time>2021-04-08T00:31:29Z</time></trkpt>
<trkpt lat="31.63788" lon="34.90226">
<ele>291</ele>
<time>2021-04-08T00:31:39Z</time></trkpt>
<trkpt lat="31.63749" lon="34.90169">
<ele>285</ele>
<time>2021-04-08T00:31:52Z</time></trkpt>
<trkpt lat="31.63744" lon="34.90158">
<ele>285</ele>
<time>2021-04-08T00:31:54Z</time></trkpt>
<trkpt lat="31.6374" lon="34.90139">
<ele>284</ele>
<time>2021-04-08T00:31:57Z</time></trkpt>
<trkpt lat="31.63742" lon="34.9012">
<ele>283</ele>
<time>2021-04-08T00:32:00Z</time></trkpt>
<trkpt lat="31.63756" lon="34.90025">
<ele>280</ele>
<time>2021-04-08T00:32:17Z</time></trkpt>
<trkpt lat="31.63759" lon="34.8998">
<ele>277</ele>
<time>2021-04-08T00:32:24Z</time></trkpt>
<trkpt lat="31.63757" lon="34.89934">
<ele>273</ele>
<time>2021-04-08T00:32:32Z</time></trkpt>
<trkpt lat="31.6375" lon="34.89907">
<ele>271</ele>
<time>2021-04-08T00:32:37Z</time></trkpt>
<trkpt lat="31.63731" lon="34.89913">
<ele>273</ele>
<time>2021-04-08T00:32:41Z</time></trkpt>
<trkpt lat="31.63686" lon="34.89938">
<ele>276</ele>
<time>2021-04-08T00:32:51Z</time></trkpt>
<trkpt lat="31.63673" lon="34.89947">
<ele>277</ele>
<time>2021-04-08T00:32:54Z</time></trkpt>
<trkpt lat="31.63641" lon="34.8999">
<ele>280</ele>
<time>2021-04-08T00:33:04Z</time></trkpt>
<trkpt lat="31.63634" lon="34.90006">
<ele>281</ele>
<time>2021-04-08T00:33:07Z</time></trkpt>
<trkpt lat="31.63634" lon="34.90022">
<ele>281</ele>
<time>2021-04-08T00:33:10Z</time></trkpt>
<trkpt lat="31.63621" lon="34.90133">
<ele>286</ele>
<time>2021-04-08T00:33:29Z</time></trkpt>
<trkpt lat="31.63607" lon="34.90175">
<ele>288</ele>
<time>2021-04-08T00:33:36Z</time></trkpt>
<trkpt lat="31.6359" lon="34.90245">
<ele>290</ele>
<time>2021-04-08T00:33:49Z</time></trkpt>
<trkpt lat="31.63559" lon="34.90345">
<ele>299</ele>
<time>2021-04-08T00:34:07Z</time></trkpt>
<trkpt lat="31.63554" lon="34.90366">
<ele>300</ele>
<time>2021-04-08T00:34:11Z</time></trkpt>
<trkpt lat="31.63551" lon="34.90393">
<ele>302</ele>
<time>2021-04-08T00:34:15Z</time></trkpt>
<trkpt lat="31.63549" lon="34.90442">
<ele>305</ele>
<time>2021-04-08T00:34:24Z</time></trkpt>
<trkpt lat="31.63546" lon="34.90469">
<ele>306</ele>
<time>2021-04-08T00:34:28Z</time></trkpt>
<trkpt lat="31.63538" lon="34.90496">
<ele>308</ele>
<time>2021-04-08T00:34:33Z</time></trkpt>
<trkpt lat="31.63516" lon="34.90539">
<ele>312</ele>
<time>2021-04-08T00:34:42Z</time></trkpt>
<trkpt lat="31.63487" lon="34.90582">
<ele>315</ele>
<time>2021-04-08T00:34:51Z</time></trkpt>
<trkpt lat="31.63463" lon="34.90597">
<ele>318</ele>
<time>2021-04-08T00:34:57Z</time></trkpt>
<trkpt lat="31.63458" lon="34.90598">
<ele>318</ele>
<time>2021-04-08T00:34:58Z</time></trkpt>
<trkpt lat="31.63442" lon="34.90598">
<ele>319</ele>
<time>2021-04-08T00:35:01Z</time></trkpt>
<trkpt lat="31.63411" lon="34.90602">
<ele>320</ele>
<time>2021-04-08T00:35:07Z</time></trkpt>
<trkpt lat="31.63387" lon="34.90595">
<ele>318</ele>
<time>2021-04-08T00:35:12Z</time></trkpt>
<trkpt lat="31.63374" lon="34.90595">
<ele>318</ele>
<time>2021-04-08T00:35:15Z</time></trkpt>
<trkpt lat="31.63358" lon="34.90598">
<ele>317</ele>
<time>2021-04-08T00:35:18Z</time></trkpt>
<trkpt lat="31.63341" lon="34.90604">
<ele>317</ele>
<time>2021-04-08T00:35:21Z</time></trkpt>
<trkpt lat="31.63306" lon="34.90611">
<ele>315</ele>
<time>2021-04-08T00:35:28Z</time></trkpt>
<trkpt lat="31.63292" lon="34.90617">
<ele>315</ele>
<time>2021-04-08T00:35:31Z</time></trkpt>
<trkpt lat="31.63261" lon="34.90635">
<ele>316</ele>
<time>2021-04-08T00:35:38Z</time></trkpt>
<trkpt lat="31.63247" lon="34.90637">
<ele>315</ele>
<time>2021-04-08T00:35:41Z</time></trkpt>
<trkpt lat="31.63217" lon="34.90635">
<ele>314</ele>
<time>2021-04-08T00:35:47Z</time></trkpt>
<trkpt lat="31.63204" lon="34.90636">
<ele>314</ele>
<time>2021-04-08T00:35:50Z</time></trkpt>
<trkpt lat="31.63163" lon="34.90656">
<ele>316</ele>
<time>2021-04-08T00:35:59Z</time></trkpt>
<trkpt lat="31.63136" lon="34.90665">
<ele>318</ele>
<time>2021-04-08T00:36:04Z</time></trkpt>
<trkpt lat="31.6312" lon="34.90673">
<ele>319</ele>
<time>2021-04-08T00:36:08Z</time></trkpt>
<trkpt lat="31.63071" lon="34.90693">
<ele>325</ele>
<time>2021-04-08T00:36:18Z</time></trkpt>
<trkpt lat="31.63022" lon="34.90702">
<ele>328</ele>
<time>2021-04-08T00:36:28Z</time></trkpt>
<trkpt lat="31.62987" lon="34.90711">
<ele>330</ele>
<time>2021-04-08T00:36:35Z</time></trkpt>
<trkpt lat="31.62959" lon="34.9071">
<ele>331</ele>
<time>2021-04-08T00:36:41Z</time></trkpt>
<trkpt lat="31.62923" lon="34.90713">
<ele>332</ele>
<time>2021-04-08T00:36:48Z</time></trkpt>
<trkpt lat="31.62908" lon="34.90711">
<ele>332</ele>
<time>2021-04-08T00:36:51Z</time></trkpt>
<trkpt lat="31.62884" lon="34.90702">
<ele>331</ele>
<time>2021-04-08T00:36:56Z</time></trkpt>
<trkpt lat="31.62862" lon="34.90698">
<ele>331</ele>
<time>2021-04-08T00:37:01Z</time></trkpt>
<trkpt lat="31.62768" lon="34.90696">
<ele>326</ele>
<time>2021-04-08T00:37:20Z</time></trkpt>
<trkpt lat="31.6271" lon="34.90688">
<ele>319</ele>
<time>2021-04-08T00:37:31Z</time></trkpt>
<trkpt lat="31.62641" lon="34.9068">
<ele>310</ele>
<time>2021-04-08T00:37:45Z</time></trkpt>
<trkpt lat="31.62607" lon="34.9068">
<ele>307</ele>
<time>2021-04-08T00:37:52Z</time></trkpt>
<trkpt lat="31.62591" lon="34.90682">
<ele>305</ele>
<time>2021-04-08T00:37:55Z</time></trkpt>
<trkpt lat="31.62565" lon="34.90688">
<ele>304</ele>
<time>2021-04-08T00:38:01Z</time></trkpt>
<trkpt lat="31.62492" lon="34.90719">
<ele>297</ele>
<time>2021-04-08T00:38:16Z</time></trkpt>
<trkpt lat="31.62439" lon="34.9074">
<ele>291</ele>
<time>2021-04-08T00:38:27Z</time></trkpt>
<trkpt lat="31.62425" lon="34.90747">
<ele>289</ele>
<time>2021-04-08T00:38:30Z</time></trkpt>
<trkpt lat="31.6241" lon="34.90758">
<ele>288</ele>
<time>2021-04-08T00:38:34Z</time></trkpt>
<trkpt lat="31.62397" lon="34.90771">
<ele>287</ele>
<time>2021-04-08T00:38:37Z</time></trkpt>
<trkpt lat="31.62381" lon="34.90798">
<ele>285</ele>
<time>2021-04-08T00:38:43Z</time></trkpt>
<trkpt lat="31.62369" lon="34.90855">
<ele>283</ele>
<time>2021-04-08T00:38:53Z</time></trkpt>
<trkpt lat="31.62379" lon="34.90918">
<ele>284</ele>
<time>2021-04-08T00:39:04Z</time></trkpt>
<trkpt lat="31.62404" lon="34.90969">
<ele>284</ele>
<time>2021-04-08T00:39:14Z</time></trkpt>
<trkpt lat="31.62418" lon="34.91046">
<ele>284</ele>
<time>2021-04-08T00:39:27Z</time></trkpt>
<trkpt lat="31.6241" lon="34.9108">
<ele>284</ele>
<time>2021-04-08T00:39:33Z</time></trkpt>
<trkpt lat="31.62555" lon="34.91264">
<ele>291</ele>
<time>2021-04-08T00:40:16Z</time></trkpt>
<trkpt lat="31.62545" lon="34.91277">
<ele>293</ele>
<time>2021-04-08T00:40:19Z</time></trkpt>
<trkpt lat="31.62546" lon="34.91319">
<ele>296</ele>
<time>2021-04-08T00:40:26Z</time></trkpt>
<trkpt lat="31.62547" lon="34.91318">
<ele>296</ele>
<time>2021-04-08T00:40:27Z</time></trkpt>
<trkpt lat="31.62553" lon="34.91329">
<ele>296</ele>
<time>2021-04-08T00:40:29Z</time></trkpt>
<trkpt lat="31.62579" lon="34.9136">
<ele>296</ele>
<time>2021-04-08T00:40:36Z</time></trkpt>
<trkpt lat="31.62585" lon="34.91372">
<ele>297</ele>
<time>2021-04-08T00:40:39Z</time></trkpt>
<trkpt lat="31.62588" lon="34.91383">
<ele>297</ele>
<time>2021-04-08T00:40:41Z</time></trkpt>
<trkpt lat="31.62591" lon="34.91408">
<ele>299</ele>
<time>2021-04-08T00:40:45Z</time></trkpt>
<trkpt lat="31.62592" lon="34.9143">
<ele>300</ele>
<time>2021-04-08T00:40:49Z</time></trkpt>
<trkpt lat="31.62591" lon="34.91453">
<ele>301</ele>
<time>2021-04-08T00:40:53Z</time></trkpt>
<trkpt lat="31.62581" lon="34.91508">
<ele>304</ele>
<time>2021-04-08T00:41:02Z</time></trkpt>
<trkpt lat="31.62573" lon="34.91573">
<ele>309</ele>
<time>2021-04-08T00:41:13Z</time></trkpt>
<trkpt lat="31.6256" lon="34.9164">
<ele>314</ele>
<time>2021-04-08T00:41:25Z</time></trkpt>
<trkpt lat="31.6256" lon="34.91651">
<ele>314</ele>
<time>2021-04-08T00:41:27Z</time></trkpt>
<trkpt lat="31.62562" lon="34.91674">
<ele>315</ele>
<time>2021-04-08T00:41:31Z</time></trkpt>
<trkpt lat="31.62553" lon="34.91754">
<ele>318</ele>
<time>2021-04-08T00:41:45Z</time></trkpt>
<trkpt lat="31.62553" lon="34.91779">
<ele>319</ele>
<time>2021-04-08T00:41:49Z</time></trkpt>
<trkpt lat="31.62558" lon="34.91815">
<ele>319</ele>
<time>2021-04-08T00:41:55Z</time></trkpt>
<trkpt lat="31.62558" lon="34.91814">
<ele>319</ele>
<time>2021-04-08T00:41:55Z</time></trkpt>
<trkpt lat="31.62562" lon="34.9183">
<ele>319</ele>
<time>2021-04-08T00:41:58Z</time></trkpt>
<trkpt lat="31.6257" lon="34.91851">
<ele>319</ele>
<time>2021-04-08T00:42:02Z</time></trkpt>
<trkpt lat="31.62572" lon="34.91868">
<ele>320</ele>
<time>2021-04-08T00:42:05Z</time></trkpt>
<trkpt lat="31.62569" lon="34.9189">
<ele>322</ele>
<time>2021-04-08T00:42:09Z</time></trkpt>
<trkpt lat="31.62567" lon="34.91898">
<ele>322</ele>
<time>2021-04-08T00:42:10Z</time></trkpt>
<trkpt lat="31.62556" lon="34.91904">
<ele>323</ele>
<time>2021-04-08T00:42:13Z</time></trkpt>
<trkpt lat="31.62548" lon="34.91912">
<ele>324</ele>
<time>2021-04-08T00:42:15Z</time></trkpt>
<trkpt lat="31.62538" lon="34.91941">
<ele>325</ele>
<time>2021-04-08T00:42:20Z</time></trkpt>
<trkpt lat="31.62532" lon="34.91965">
<ele>325</ele>
<time>2021-04-08T00:42:24Z</time></trkpt>
<trkpt lat="31.62526" lon="34.91976">
<ele>325</ele>
<time>2021-04-08T00:42:27Z</time></trkpt>
<trkpt lat="31.62515" lon="34.91989">
<ele>324</ele>
<time>2021-04-08T00:42:30Z</time></trkpt>
<trkpt lat="31.62496" lon="34.92004">
<ele>323</ele>
<time>2021-04-08T00:42:34Z</time></trkpt>
<trkpt lat="31.62475" lon="34.92018">
<ele>321</ele>
<time>2021-04-08T00:42:39Z</time></trkpt>
<trkpt lat="31.62429" lon="34.9204">
<ele>317</ele>
<time>2021-04-08T00:42:49Z</time></trkpt>
<trkpt lat="31.6235" lon="34.92062">
<ele>307</ele>
<time>2021-04-08T00:43:05Z</time></trkpt>
<trkpt lat="31.62244" lon="34.92102">
<ele>299</ele>
<time>2021-04-08T00:43:28Z</time></trkpt>
<trkpt lat="31.62251" lon="34.92125">
<ele>301</ele>
<time>2021-04-08T00:43:32Z</time></trkpt>
<trkpt lat="31.62249" lon="34.92138">
<ele>302</ele>
<time>2021-04-08T00:43:34Z</time></trkpt>
<trkpt lat="31.6224" lon="34.9215">
<ele>302</ele>
<time>2021-04-08T00:43:37Z</time></trkpt>
<trkpt lat="31.62212" lon="34.92168">
<ele>301</ele>
<time>2021-04-08T00:43:43Z</time></trkpt>
<trkpt lat="31.62198" lon="34.92181">
<ele>301</ele>
<time>2021-04-08T00:43:47Z</time></trkpt>
<trkpt lat="31.62189" lon="34.92209">
<ele>303</ele>
<time>2021-04-08T00:43:52Z</time></trkpt>
<trkpt lat="31.62159" lon="34.92276">
<ele>304</ele>
<time>2021-04-08T00:44:05Z</time></trkpt>
<trkpt lat="31.6214" lon="34.9231">
<ele>304</ele>
<time>2021-04-08T00:44:12Z</time></trkpt>
<trkpt lat="31.62128" lon="34.92328">
<ele>304</ele>
<time>2021-04-08T00:44:16Z</time></trkpt>
<trkpt lat="31.62111" lon="34.9236">
<ele>303</ele>
<time>2021-04-08T00:44:22Z</time></trkpt>
<trkpt lat="31.62097" lon="34.92408">
<ele>303</ele>
<time>2021-04-08T00:44:31Z</time></trkpt>
<trkpt lat="31.62094" lon="34.92429">
<ele>302</ele>
<time>2021-04-08T00:44:34Z</time></trkpt>
<trkpt lat="31.62089" lon="34.92445">
<ele>302</ele>
<time>2021-04-08T00:44:37Z</time></trkpt>
<trkpt lat="31.62078" lon="34.92472">
<ele>300</ele>
<time>2021-04-08T00:44:42Z</time></trkpt>
<trkpt lat="31.6207" lon="34.92486">
<ele>299</ele>
<time>2021-04-08T00:44:45Z</time></trkpt>
<trkpt lat="31.62065" lon="34.92497">
<ele>299</ele>
<time>2021-04-08T00:44:47Z</time></trkpt>
<trkpt lat="31.62059" lon="34.92502">
<ele>298</ele>
<time>2021-04-08T00:44:49Z</time></trkpt>
<trkpt lat="31.62039" lon="34.92511">
<ele>296</ele>
<time>2021-04-08T00:44:53Z</time></trkpt>
<trkpt lat="31.62029" lon="34.92507">
<ele>294</ele>
<time>2021-04-08T00:44:55Z</time></trkpt>
<trkpt lat="31.61999" lon="34.9249">
<ele>291</ele>
<time>2021-04-08T00:45:02Z</time></trkpt>
<trkpt lat="31.61987" lon="34.92486">
<ele>291</ele>
<time>2021-04-08T00:45:05Z</time></trkpt>
<trkpt lat="31.6199" lon="34.92504">
<ele>291</ele>
<time>2021-04-08T00:45:08Z</time></trkpt>
<trkpt lat="31.62" lon="34.92525">
<ele>291</ele>
<time>2021-04-08T00:45:12Z</time></trkpt>
<trkpt lat="31.62002" lon="34.92539">
<ele>292</ele>
<time>2021-04-08T00:45:14Z</time></trkpt>
<trkpt lat="31.62001" lon="34.92546">
<ele>292</ele>
<time>2021-04-08T00:45:15Z</time></trkpt>
<trkpt lat="31.61991" lon="34.92565">
<ele>292</ele>
<time>2021-04-08T00:45:19Z</time></trkpt>
<trkpt lat="31.61933" lon="34.92628">
<ele>296</ele>
<time>2021-04-08T00:45:35Z</time></trkpt>
<trkpt lat="31.6192" lon="34.92652">
<ele>299</ele>
<time>2021-04-08T00:45:40Z</time></trkpt>
<trkpt lat="31.61966" lon="34.92685">
<ele>302</ele>
<time>2021-04-08T00:45:51Z</time></trkpt>
<trkpt lat="31.61995" lon="34.92703">
<ele>304</ele>
<time>2021-04-08T00:45:57Z</time></trkpt>
<trkpt lat="31.62009" lon="34.92714">
<ele>305</ele>
<time>2021-04-08T00:46:01Z</time></trkpt>
<trkpt lat="31.62072" lon="34.92739">
<ele>302</ele>
<time>2021-04-08T00:46:14Z</time></trkpt>
<trkpt lat="31.62144" lon="34.92777">
<ele>302</ele>
<time>2021-04-08T00:46:30Z</time></trkpt>
<trkpt lat="31.62209" lon="34.92837">
<ele>304</ele>
<time>2021-04-08T00:46:46Z</time></trkpt>
<trkpt lat="31.62286" lon="34.92927">
<ele>307</ele>
<time>2021-04-08T00:47:08Z</time></trkpt>
<trkpt lat="31.62299" lon="34.92947">
<ele>307</ele>
<time>2021-04-08T00:47:12Z</time></trkpt>
<trkpt lat="31.62314" lon="34.92978">
<ele>307</ele>
<time>2021-04-08T00:47:18Z</time></trkpt>
<trkpt lat="31.6232" lon="34.93004">
<ele>307</ele>
<time>2021-04-08T00:47:23Z</time></trkpt>
<trkpt lat="31.62325" lon="34.93034">
<ele>308</ele>
<time>2021-04-08T00:47:28Z</time></trkpt>
<trkpt lat="31.62327" lon="34.93051">
<ele>308</ele>
<time>2021-04-08T00:47:31Z</time></trkpt>
<trkpt lat="31.62326" lon="34.93075">
<ele>309</ele>
<time>2021-04-08T00:47:35Z</time></trkpt>
<trkpt lat="31.6233" lon="34.93154">
<ele>312</ele>
<time>2021-04-08T00:47:49Z</time></trkpt>
<trkpt lat="31.62329" lon="34.93169">
<ele>313</ele>
<time>2021-04-08T00:47:51Z</time></trkpt>
<trkpt lat="31.62319" lon="34.93198">
<ele>313</ele>
<time>2021-04-08T00:47:57Z</time></trkpt>
<trkpt lat="31.62305" lon="34.93223">
<ele>314</ele>
<time>2021-04-08T00:48:02Z</time></trkpt>
<trkpt lat="31.62282" lon="34.93254">
<ele>313</ele>
<time>2021-04-08T00:48:09Z</time></trkpt>
<trkpt lat="31.62255" lon="34.93282">
<ele>315</ele>
<time>2021-04-08T00:48:16Z</time></trkpt>
<trkpt lat="31.62199" lon="34.93353">
<ele>321</ele>
<time>2021-04-08T00:48:33Z</time></trkpt>
<trkpt lat="31.62168" lon="34.93397">
<ele>325</ele>
<time>2021-04-08T00:48:42Z</time></trkpt>
<trkpt lat="31.62162" lon="34.93413">
<ele>327</ele>
<time>2021-04-08T00:48:45Z</time></trkpt>
<trkpt lat="31.62138" lon="34.93482">
<ele>334</ele>
<time>2021-04-08T00:48:58Z</time></trkpt>
<trkpt lat="31.6212" lon="34.93564">
<ele>340</ele>
<time>2021-04-08T00:49:12Z</time></trkpt>
<trkpt lat="31.62115" lon="34.93599">
<ele>342</ele>
<time>2021-04-08T00:49:19Z</time></trkpt>
<trkpt lat="31.62115" lon="34.93624">
<ele>343</ele>
<time>2021-04-08T00:49:23Z</time></trkpt>
<trkpt lat="31.62109" lon="34.93671">
<ele>344</ele>
<time>2021-04-08T00:49:31Z</time></trkpt>
<trkpt lat="31.62109" lon="34.93695">
<ele>346</ele>
<time>2021-04-08T00:49:35Z</time></trkpt>
<trkpt lat="31.62112" lon="34.93729">
<ele>349</ele>
<time>2021-04-08T00:49:41Z</time></trkpt>
<trkpt lat="31.62112" lon="34.93753">
<ele>351</ele>
<time>2021-04-08T00:49:45Z</time></trkpt>
<trkpt lat="31.62109" lon="34.93801">
<ele>353</ele>
<time>2021-04-08T00:49:53Z</time></trkpt>
<trkpt lat="31.62114" lon="34.93848">
<ele>356</ele>
<time>2021-04-08T00:50:01Z</time></trkpt>
<trkpt lat="31.62124" lon="34.93894">
<ele>358</ele>
<time>2021-04-08T00:50:09Z</time></trkpt>
<trkpt lat="31.6213" lon="34.93933">
<ele>360</ele>
<time>2021-04-08T00:50:16Z</time></trkpt>
<trkpt lat="31.62132" lon="34.94014">
<ele>363</ele>
<time>2021-04-08T00:50:30Z</time></trkpt>
<trkpt lat="31.62121" lon="34.94083">
<ele>366</ele>
<time>2021-04-08T00:50:42Z</time></trkpt>
<trkpt lat="31.62085" lon="34.9422">
<ele>370</ele>
<time>2021-04-08T00:51:06Z</time></trkpt>
<trkpt lat="31.6208" lon="34.94243">
<ele>371</ele>
<time>2021-04-08T00:51:10Z</time></trkpt>
<trkpt lat="31.62077" lon="34.94274">
<ele>374</ele>
<time>2021-04-08T00:51:16Z</time></trkpt>
<trkpt lat="31.62062" lon="34.94356">
<ele>380</ele>
<time>2021-04-08T00:51:30Z</time></trkpt>
<trkpt lat="31.62057" lon="34.94386">
<ele>382</ele>
<time>2021-04-08T00:51:35Z</time></trkpt>
<trkpt lat="31.62057" lon="34.94406">
<ele>382</ele>
<time>2021-04-08T00:51:39Z</time></trkpt>
<trkpt lat="31.62058" lon="34.94411">
<ele>382</ele>
<time>2021-04-08T00:51:40Z</time></trkpt>
<trkpt lat="31.61998" lon="34.94421">
<ele>384</ele>
<time>2021-04-08T00:51:52Z</time></trkpt>
<trkpt lat="31.61981" lon="34.94422">
<ele>383</ele>
<time>2021-04-08T00:51:55Z</time></trkpt>
<trkpt lat="31.61971" lon="34.9442">
<ele>383</ele>
<time>2021-04-08T00:51:57Z</time></trkpt>
<trkpt lat="31.6196" lon="34.94424">
<ele>383</ele>
<time>2021-04-08T00:51:59Z</time></trkpt>
<trkpt lat="31.61926" lon="34.94424">
<ele>381</ele>
<time>2021-04-08T00:52:06Z</time></trkpt>
<trkpt lat="31.61915" lon="34.94426">
<ele>381</ele>
<time>2021-04-08T00:52:08Z</time></trkpt>
<trkpt lat="31.61902" lon="34.94433">
<ele>378</ele>
<time>2021-04-08T00:52:11Z</time></trkpt>
<trkpt lat="31.61857" lon="34.94446">
<ele>369</ele>
<time>2021-04-08T00:52:21Z</time></trkpt>
<trkpt lat="31.61839" lon="34.94441">
<ele>366</ele>
<time>2021-04-08T00:52:24Z</time></trkpt>
<trkpt lat="31.618" lon="34.94418">
<ele>356</ele>
<time>2021-04-08T00:52:33Z</time></trkpt>
<trkpt lat="31.61789" lon="34.94408">
<ele>355</ele>
<time>2021-04-08T00:52:36Z</time></trkpt>
<trkpt lat="31.61781" lon="34.94399">
<ele>354</ele>
<time>2021-04-08T00:52:38Z</time></trkpt>
<trkpt lat="31.61762" lon="34.94387">
<ele>352</ele>
<time>2021-04-08T00:52:42Z</time></trkpt>
<trkpt lat="31.61705" lon="34.94377">
<ele>346</ele>
<time>2021-04-08T00:52:54Z</time></trkpt>
<trkpt lat="31.61683" lon="34.94379">
<ele>343</ele>
<time>2021-04-08T00:52:58Z</time></trkpt>
<trkpt lat="31.61651" lon="34.94379">
<ele>339</ele>
<time>2021-04-08T00:53:05Z</time></trkpt>
<trkpt lat="31.61609" lon="34.94384">
<ele>332</ele>
<time>2021-04-08T00:53:13Z</time></trkpt>
<trkpt lat="31.6161" lon="34.94414">
<ele>330</ele>
<time>2021-04-08T00:53:18Z</time></trkpt>
<trkpt lat="31.61609" lon="34.94426">
<ele>330</ele>
<time>2021-04-08T00:53:20Z</time></trkpt>
<trkpt lat="31.61594" lon="34.94465">
<ele>329</ele>
<time>2021-04-08T00:53:28Z</time></trkpt>
<trkpt lat="31.61583" lon="34.94496">
<ele>328</ele>
<time>2021-04-08T00:53:33Z</time></trkpt>
<trkpt lat="31.6157" lon="34.94558">
<ele>329</ele>
<time>2021-04-08T00:53:44Z</time></trkpt>
<trkpt lat="31.61562" lon="34.94612">
<ele>329</ele>
<time>2021-04-08T00:53:54Z</time></trkpt>
<trkpt lat="31.6156" lon="34.9462">
<ele>328</ele>
<time>2021-04-08T00:53:55Z</time></trkpt>
<trkpt lat="31.61553" lon="34.94635">
<ele>328</ele>
<time>2021-04-08T00:53:58Z</time></trkpt>
<trkpt lat="31.6155" lon="34.94647">
<ele>328</ele>
<time>2021-04-08T00:54:00Z</time></trkpt>
<trkpt lat="31.61547" lon="34.94676">
<ele>327</ele>
<time>2021-04-08T00:54:05Z</time></trkpt>
<trkpt lat="31.61549" lon="34.94702">
<ele>327</ele>
<time>2021-04-08T00:54:10Z</time></trkpt>
<trkpt lat="31.61548" lon="34.94723">
<ele>326</ele>
<time>2021-04-08T00:54:13Z</time></trkpt>
<trkpt lat="31.61533" lon="34.94775">
<ele>326</ele>
<time>2021-04-08T00:54:23Z</time></trkpt>
<trkpt lat="31.6152" lon="34.94802">
<ele>326</ele>
<time>2021-04-08T00:54:28Z</time></trkpt>
<trkpt lat="31.61453" lon="34.94874">
<ele>329</ele>
<time>2021-04-08T00:54:46Z</time></trkpt>
<trkpt lat="31.61442" lon="34.94878">
<ele>328</ele>
<time>2021-04-08T00:54:48Z</time></trkpt>
<trkpt lat="31.61421" lon="34.94901">
<ele>328</ele>
<time>2021-04-08T00:54:54Z</time></trkpt>
<trkpt lat="31.61396" lon="34.94918">
<ele>327</ele>
<time>2021-04-08T00:55:00Z</time></trkpt>
<trkpt lat="31.61388" lon="34.94926">
<ele>327</ele>
<time>2021-04-08T00:55:02Z</time></trkpt>
<trkpt lat="31.61376" lon="34.94947">
<ele>328</ele>
<time>2021-04-08T00:55:06Z</time></trkpt>
<trkpt lat="31.61375" lon="34.9496">
<ele>330</ele>
<time>2021-04-08T00:55:09Z</time></trkpt>
<trkpt lat="31.61366" lon="34.94978">
<ele>331</ele>
<time>2021-04-08T00:55:12Z</time></trkpt>
<trkpt lat="31.61363" lon="34.9499">
<ele>331</ele>
<time>2021-04-08T00:55:14Z</time></trkpt>
<trkpt lat="31.61342" lon="34.9503">
<ele>331</ele>
<time>2021-04-08T00:55:22Z</time></trkpt>
<trkpt lat="31.61334" lon="34.95053">
<ele>331</ele>
<time>2021-04-08T00:55:27Z</time></trkpt>
<trkpt lat="31.61324" lon="34.95094">
<ele>333</ele>
<time>2021-04-08T00:55:34Z</time></trkpt>
<trkpt lat="31.61307" lon="34.9514">
<ele>331</ele>
<time>2021-04-08T00:55:42Z</time></trkpt>
<trkpt lat="31.61291" lon="34.95163">
<ele>330</ele>
<time>2021-04-08T00:55:47Z</time></trkpt>
<trkpt lat="31.61279" lon="34.95172">
<ele>330</ele>
<time>2021-04-08T00:55:50Z</time></trkpt>
<trkpt lat="31.61267" lon="34.95193">
<ele>331</ele>
<time>2021-04-08T00:55:55Z</time></trkpt>
<trkpt lat="31.61245" lon="34.95246">
<ele>333</ele>
<time>2021-04-08T00:56:05Z</time></trkpt>
<trkpt lat="31.61244" lon="34.95271">
<ele>334</ele>
<time>2021-04-08T00:56:09Z</time></trkpt>
<trkpt lat="31.61247" lon="34.95287">
<ele>335</ele>
<time>2021-04-08T00:56:12Z</time></trkpt>
<trkpt lat="31.61247" lon="34.95296">
<ele>335</ele>
<time>2021-04-08T00:56:13Z</time></trkpt>
<trkpt lat="31.61245" lon="34.95308">
<ele>335</ele>
<time>2021-04-08T00:56:15Z</time></trkpt>
<trkpt lat="31.6123" lon="34.95337">
<ele>334</ele>
<time>2021-04-08T00:56:21Z</time></trkpt>
<trkpt lat="31.61223" lon="34.95359">
<ele>334</ele>
<time>2021-04-08T00:56:25Z</time></trkpt>
<trkpt lat="31.61205" lon="34.95384">
<ele>333</ele>
<time>2021-04-08T00:56:31Z</time></trkpt>
<trkpt lat="31.61192" lon="34.954">
<ele>333</ele>
<time>2021-04-08T00:56:34Z</time></trkpt>
<trkpt lat="31.61173" lon="34.95407">
<ele>333</ele>
<time>2021-04-08T00:56:38Z</time></trkpt>
<trkpt lat="31.6118" lon="34.95409">
<ele>333</ele>
<time>2021-04-08T00:56:40Z</time></trkpt>
<trkpt lat="31.61198" lon="34.95436">
<ele>337</ele>
<time>2021-04-08T00:56:46Z</time></trkpt>
<trkpt lat="31.61225" lon="34.95489">
<ele>341</ele>
<time>2021-04-08T00:56:56Z</time></trkpt>
<trkpt lat="31.61233" lon="34.95507">
<ele>342</ele>
<time>2021-04-08T00:57:00Z</time></trkpt>
<trkpt lat="31.61234" lon="34.95511">
<ele>342</ele>
<time>2021-04-08T00:57:00Z</time></trkpt>
<trkpt lat="31.61279" lon="34.9562">
<ele>349</ele>
<time>2021-04-08T00:57:21Z</time></trkpt>
<trkpt lat="31.61292" lon="34.95662">
<ele>349</ele>
<time>2021-04-08T00:57:29Z</time></trkpt>
<trkpt lat="31.61295" lon="34.95678">
<ele>349</ele>
<time>2021-04-08T00:57:32Z</time></trkpt>
<trkpt lat="31.61296" lon="34.95703">
<ele>351</ele>
<time>2021-04-08T00:57:36Z</time></trkpt>
<trkpt lat="31.61294" lon="34.95714">
<ele>352</ele>
<time>2021-04-08T00:57:38Z</time></trkpt>
<trkpt lat="31.61286" lon="34.95746">
<ele>356</ele>
<time>2021-04-08T00:57:43Z</time></trkpt>
<trkpt lat="31.61265" lon="34.95798">
<ele>360</ele>
<time>2021-04-08T00:57:53Z</time></trkpt>
<trkpt lat="31.61259" lon="34.95822">
<ele>361</ele>
<time>2021-04-08T00:57:58Z</time></trkpt>
<trkpt lat="31.61257" lon="34.95843">
<ele>362</ele>
<time>2021-04-08T00:58:01Z</time></trkpt>
<trkpt lat="31.61259" lon="34.95856">
<ele>362</ele>
<time>2021-04-08T00:58:03Z</time></trkpt>
<trkpt lat="31.61266" lon="34.95878">
<ele>362</ele>
<time>2021-04-08T00:58:07Z</time></trkpt>
<trkpt lat="31.61274" lon="34.95896">
<ele>362</ele>
<time>2021-04-08T00:58:11Z</time></trkpt>
<trkpt lat="31.61296" lon="34.9595">
<ele>364</ele>
<time>2021-04-08T00:58:21Z</time></trkpt>
<trkpt lat="31.61319" lon="34.96013">
<ele>369</ele>
<time>2021-04-08T00:58:33Z</time></trkpt>
<trkpt lat="31.6135" lon="34.96173">
<ele>381</ele>
<time>2021-04-08T00:59:01Z</time></trkpt>
<trkpt lat="31.61361" lon="34.96237">
<ele>386</ele>
<time>2021-04-08T00:59:12Z</time></trkpt>
<trkpt lat="31.61363" lon="34.96263">
<ele>387</ele>
<time>2021-04-08T00:59:16Z</time></trkpt>
<trkpt lat="31.61363" lon="34.96282">
<ele>389</ele>
<time>2021-04-08T00:59:20Z</time></trkpt>
<trkpt lat="31.61365" lon="34.96295">
<ele>390</ele>
<time>2021-04-08T00:59:22Z</time></trkpt>
<trkpt lat="31.61372" lon="34.96395">
<ele>398</ele>
<time>2021-04-08T00:59:39Z</time></trkpt>
<trkpt lat="31.61375" lon="34.96495">
<ele>405</ele>
<time>2021-04-08T00:59:56Z</time></trkpt>
<trkpt lat="31.61377" lon="34.96506">
<ele>406</ele>
<time>2021-04-08T00:59:58Z</time></trkpt>
<trkpt lat="31.6138" lon="34.96516">
<ele>406</ele>
<time>2021-04-08T01:00:00Z</time></trkpt>
<trkpt lat="31.61385" lon="34.96529">
<ele>406</ele>
<time>2021-04-08T01:00:02Z</time></trkpt>
<trkpt lat="31.61391" lon="34.96537">
<ele>406</ele>
<time>2021-04-08T01:00:04Z</time></trkpt>
<trkpt lat="31.61407" lon="34.96552">
<ele>407</ele>
<time>2021-04-08T01:00:08Z</time></trkpt>
<trkpt lat="31.61447" lon="34.96577">
<ele>408</ele>
<time>2021-04-08T01:00:17Z</time></trkpt>
<trkpt lat="31.61497" lon="34.96606">
<ele>409</ele>
<time>2021-04-08T01:00:28Z</time></trkpt>
<trkpt lat="31.61504" lon="34.96609">
<ele>410</ele>
<time>2021-04-08T01:00:30Z</time></trkpt>
<trkpt lat="31.61523" lon="34.96619">
<ele>412</ele>
<time>2021-04-08T01:00:34Z</time></trkpt>
<trkpt lat="31.61545" lon="34.9663">
<ele>414</ele>
<time>2021-04-08T01:00:39Z</time></trkpt>
<trkpt lat="31.61569" lon="34.96638">
<ele>416</ele>
<time>2021-04-08T01:00:44Z</time></trkpt>
<trkpt lat="31.6158" lon="34.96641">
<ele>416</ele>
<time>2021-04-08T01:00:46Z</time></trkpt>
<trkpt lat="31.6164" lon="34.96644">
<ele>416</ele>
<time>2021-04-08T01:00:58Z</time></trkpt>
<trkpt lat="31.61768" lon="34.96678">
<ele>412</ele>
<time>2021-04-08T01:01:24Z</time></trkpt>
<trkpt lat="31.61791" lon="34.96681">
<ele>411</ele>
<time>2021-04-08T01:01:29Z</time></trkpt>
<trkpt lat="31.61801" lon="34.9668">
<ele>411</ele>
<time>2021-04-08T01:01:31Z</time></trkpt>
<trkpt lat="31.61808" lon="34.9668">
<ele>411</ele>
<time>2021-04-08T01:01:33Z</time></trkpt>
<trkpt lat="31.61822" lon="34.96676">
<ele>410</ele>
<time>2021-04-08T01:01:35Z</time></trkpt>
<trkpt lat="31.61862" lon="34.96663">
<ele>409</ele>
<time>2021-04-08T01:01:44Z</time></trkpt>
<trkpt lat="31.61938" lon="34.96642">
<ele>409</ele>
<time>2021-04-08T01:01:59Z</time></trkpt>
<trkpt lat="31.6196" lon="34.96641">
<ele>409</ele>
<time>2021-04-08T01:02:04Z</time></trkpt>
<trkpt lat="31.61973" lon="34.96641">
<ele>409</ele>
<time>2021-04-08T01:02:06Z</time></trkpt>
<trkpt lat="31.62001" lon="34.96644">
<ele>409</ele>
<time>2021-04-08T01:02:12Z</time></trkpt>
<trkpt lat="31.62058" lon="34.96654">
<ele>408</ele>
<time>2021-04-08T01:02:24Z</time></trkpt>
<trkpt lat="31.62074" lon="34.96656">
<ele>408</ele>
<time>2021-04-08T01:02:27Z</time></trkpt>
<trkpt lat="31.62121" lon="34.96661">
<ele>408</ele>
<time>2021-04-08T01:02:36Z</time></trkpt>
<trkpt lat="31.62138" lon="34.96665">
<ele>408</ele>
<time>2021-04-08T01:02:40Z</time></trkpt>
<trkpt lat="31.62159" lon="34.96676">
<ele>409</ele>
<time>2021-04-08T01:02:44Z</time></trkpt>
<trkpt lat="31.62169" lon="34.96684">
<ele>409</ele>
<time>2021-04-08T01:02:47Z</time></trkpt>
<trkpt lat="31.622" lon="34.9671">
<ele>409</ele>
<time>2021-04-08T01:02:54Z</time></trkpt>
<trkpt lat="31.6221" lon="34.96722">
<ele>409</ele>
<time>2021-04-08T01:02:57Z</time></trkpt>
<trkpt lat="31.62221" lon="34.96738">
<ele>409</ele>
<time>2021-04-08T01:03:01Z</time></trkpt>
<trkpt lat="31.62224" lon="34.96743">
<ele>409</ele>
<time>2021-04-08T01:03:02Z</time></trkpt>
<trkpt lat="31.62253" lon="34.96796">
<ele>408</ele>
<time>2021-04-08T01:03:13Z</time></trkpt>
<trkpt lat="31.62252" lon="34.96796">
<ele>408</ele>
<time>2021-04-08T01:03:13Z</time></trkpt>
<trkpt lat="31.62259" lon="34.96809">
<ele>407</ele>
<time>2021-04-08T01:03:15Z</time></trkpt>
<trkpt lat="31.62263" lon="34.96822">
<ele>406</ele>
<time>2021-04-08T01:03:18Z</time></trkpt>
<trkpt lat="31.62266" lon="34.96845">
<ele>407</ele>
<time>2021-04-08T01:03:22Z</time></trkpt>
<trkpt lat="31.62264" lon="34.96883">
<ele>409</ele>
<time>2021-04-08T01:03:28Z</time></trkpt>
<trkpt lat="31.62267" lon="34.96909">
<ele>410</ele>
<time>2021-04-08T01:03:33Z</time></trkpt>
<trkpt lat="31.62269" lon="34.96914">
<ele>410</ele>
<time>2021-04-08T01:03:34Z</time></trkpt>
<trkpt lat="31.62279" lon="34.96931">
<ele>410</ele>
<time>2021-04-08T01:03:37Z</time></trkpt>
<trkpt lat="31.62291" lon="34.96941">
<ele>410</ele>
<time>2021-04-08T01:03:40Z</time></trkpt>
<trkpt lat="31.62304" lon="34.96949">
<ele>409</ele>
<time>2021-04-08T01:03:43Z</time></trkpt>
<trkpt lat="31.62346" lon="34.96969">
<ele>406</ele>
<time>2021-04-08T01:03:52Z</time></trkpt>
<trkpt lat="31.62363" lon="34.96982">
<ele>404</ele>
<time>2021-04-08T01:03:56Z</time></trkpt>
<trkpt lat="31.62369" lon="34.96989">
<ele>404</ele>
<time>2021-04-08T01:03:58Z</time></trkpt>
<trkpt lat="31.62368" lon="34.96989">
<ele>404</ele>
<time>2021-04-08T01:03:58Z</time></trkpt>
<trkpt lat="31.62382" lon="34.97011">
<ele>404</ele>
<time>2021-04-08T01:04:03Z</time></trkpt>
<trkpt lat="31.62391" lon="34.9704">
<ele>403</ele>
<time>2021-04-08T01:04:08Z</time></trkpt>
<trkpt lat="31.62393" lon="34.97057">
<ele>404</ele>
<time>2021-04-08T01:04:11Z</time></trkpt>
<trkpt lat="31.62394" lon="34.97075">
<ele>404</ele>
<time>2021-04-08T01:04:14Z</time></trkpt>
<trkpt lat="31.6239" lon="34.97101">
<ele>405</ele>
<time>2021-04-08T01:04:19Z</time></trkpt>
<trkpt lat="31.62346" lon="34.9725">
<ele>407</ele>
<time>2021-04-08T01:04:45Z</time></trkpt>
<trkpt lat="31.62346" lon="34.97276">
<ele>406</ele>
<time>2021-04-08T01:04:50Z</time></trkpt>
<trkpt lat="31.62357" lon="34.97328">
<ele>404</ele>
<time>2021-04-08T01:04:59Z</time></trkpt>
<trkpt lat="31.62357" lon="34.9735">
<ele>403</ele>
<time>2021-04-08T01:05:03Z</time></trkpt>
<trkpt lat="31.62353" lon="34.97367">
<ele>402</ele>
<time>2021-04-08T01:05:06Z</time></trkpt>
<trkpt lat="31.62347" lon="34.97383">
<ele>401</ele>
<time>2021-04-08T01:05:09Z</time></trkpt>
<trkpt lat="31.62337" lon="34.97399">
<ele>401</ele>
<time>2021-04-08T01:05:12Z</time></trkpt>
<trkpt lat="31.62328" lon="34.97418">
<ele>401</ele>
<time>2021-04-08T01:05:16Z</time></trkpt>
<trkpt lat="31.62326" lon="34.97438">
<ele>400</ele>
<time>2021-04-08T01:05:19Z</time></trkpt>
<trkpt lat="31.62327" lon="34.97457">
<ele>400</ele>
<time>2021-04-08T01:05:23Z</time></trkpt>
<trkpt lat="31.62335" lon="34.97472">
<ele>398</ele>
<time>2021-04-08T01:05:26Z</time></trkpt>
<trkpt lat="31.62361" lon="34.97531">
<ele>395</ele>
<time>2021-04-08T01:05:37Z</time></trkpt>
<trkpt lat="31.62365" lon="34.97546">
<ele>395</ele>
<time>2021-04-08T01:05:40Z</time></trkpt>
<trkpt lat="31.62376" lon="34.97562">
<ele>394</ele>
<time>2021-04-08T01:05:43Z</time></trkpt>
<trkpt lat="31.62391" lon="34.97574">
<ele>393</ele>
<time>2021-04-08T01:05:47Z</time></trkpt>
<trkpt lat="31.62419" lon="34.97581">
<ele>391</ele>
<time>2021-04-08T01:05:52Z</time></trkpt>
<trkpt lat="31.62432" lon="34.97582">
<ele>392</ele>
<time>2021-04-08T01:05:55Z</time></trkpt>
<trkpt lat="31.62477" lon="34.97579">
<ele>393</ele>
<time>2021-04-08T01:06:04Z</time></trkpt>
<trkpt lat="31.62669" lon="34.97588">
<ele>401</ele>
<time>2021-04-08T01:06:43Z</time></trkpt>
<trkpt lat="31.62681" lon="34.9759">
<ele>401</ele>
<time>2021-04-08T01:06:45Z</time></trkpt>
<trkpt lat="31.62702" lon="34.97597">
<ele>402</ele>
<time>2021-04-08T01:06:49Z</time></trkpt>
<trkpt lat="31.62701" lon="34.97597">
<ele>402</ele>
<time>2021-04-08T01:06:50Z</time></trkpt>
<trkpt lat="31.62772" lon="34.97637">
<ele>405</ele>
<time>2021-04-08T01:07:05Z</time></trkpt>
<trkpt lat="31.6283" lon="34.97677">
<ele>406</ele>
<time>2021-04-08T01:07:19Z</time></trkpt>
<trkpt lat="31.62843" lon="34.97692">
<ele>407</ele>
<time>2021-04-08T01:07:23Z</time></trkpt>
<trkpt lat="31.62851" lon="34.97704">
<ele>407</ele>
<time>2021-04-08T01:07:25Z</time></trkpt>
<trkpt lat="31.62876" lon="34.97758">
<ele>410</ele>
<time>2021-04-08T01:07:36Z</time></trkpt>
<trkpt lat="31.62882" lon="34.97768">
<ele>410</ele>
<time>2021-04-08T01:07:38Z</time></trkpt>
<trkpt lat="31.62886" lon="34.97772">
<ele>410</ele>
<time>2021-04-08T01:07:39Z</time></trkpt>
<trkpt lat="31.62894" lon="34.97776">
<ele>410</ele>
<time>2021-04-08T01:07:40Z</time></trkpt>
<trkpt lat="31.62908" lon="34.97776">
<ele>410</ele>
<time>2021-04-08T01:07:43Z</time></trkpt>
<trkpt lat="31.62919" lon="34.97772">
<ele>409</ele>
<time>2021-04-08T01:07:46Z</time></trkpt>
<trkpt lat="31.62943" lon="34.97757">
<ele>410</ele>
<time>2021-04-08T01:07:51Z</time></trkpt>
<trkpt lat="31.6297" lon="34.97746">
<ele>411</ele>
<time>2021-04-08T01:07:57Z</time></trkpt>
<trkpt lat="31.6301" lon="34.9774">
<ele>413</ele>
<time>2021-04-08T01:08:05Z</time></trkpt>
<trkpt lat="31.63018" lon="34.97733">
<ele>413</ele>
<time>2021-04-08T01:08:07Z</time></trkpt>
<trkpt lat="31.63026" lon="34.97717">
<ele>413</ele>
<time>2021-04-08T01:08:10Z</time></trkpt>
<trkpt lat="31.63031" lon="34.97696">
<ele>413</ele>
<time>2021-04-08T01:08:14Z</time></trkpt>
<trkpt lat="31.6304" lon="34.97692">
<ele>414</ele>
<time>2021-04-08T01:08:16Z</time></trkpt>
<trkpt lat="31.63088" lon="34.97692">
<ele>420</ele>
<time>2021-04-08T01:08:25Z</time></trkpt>
<trkpt lat="31.63099" lon="34.9769">
<ele>421</ele>
<time>2021-04-08T01:08:28Z</time></trkpt>
<trkpt lat="31.63146" lon="34.9769">
<ele>424</ele>
<time>2021-04-08T01:08:37Z</time></trkpt>
<trkpt lat="31.63168" lon="34.97697">
<ele>425</ele>
<time>2021-04-08T01:08:42Z</time></trkpt>
<trkpt lat="31.63187" lon="34.977">
<ele>425</ele>
<time>2021-04-08T01:08:45Z</time></trkpt>
<trkpt lat="31.63209" lon="34.97711">
<ele>424</ele>
<time>2021-04-08T01:08:50Z</time></trkpt>
<trkpt lat="31.63222" lon="34.97714">
<ele>423</ele>
<time>2021-04-08T01:08:53Z</time></trkpt>
<trkpt lat="31.63265" lon="34.9771">
<ele>421</ele>
<time>2021-04-08T01:09:01Z</time></trkpt>
<trkpt lat="31.63282" lon="34.97702">
<ele>420</ele>
<time>2021-04-08T01:09:05Z</time></trkpt>
<trkpt lat="31.63346" lon="34.9769">
<ele>415</ele>
<time>2021-04-08T01:09:18Z</time></trkpt>
<trkpt lat="31.63391" lon="34.97681">
<ele>411</ele>
<time>2021-04-08T01:09:27Z</time></trkpt>
<trkpt lat="31.63435" lon="34.97667">
<ele>408</ele>
<time>2021-04-08T01:09:36Z</time></trkpt>
<trkpt lat="31.63494" lon="34.97632">
<ele>406</ele>
<time>2021-04-08T01:09:50Z</time></trkpt>
<trkpt lat="31.63557" lon="34.97603">
<ele>405</ele>
<time>2021-04-08T01:10:03Z</time></trkpt>
<trkpt lat="31.63588" lon="34.97593">
<ele>403</ele>
<time>2021-04-08T01:10:10Z</time></trkpt>
<trkpt lat="31.63603" lon="34.97591">
<ele>401</ele>
<time>2021-04-08T01:10:13Z</time></trkpt>
<trkpt lat="31.63617" lon="34.97596">
<ele>400</ele>
<time>2021-04-08T01:10:16Z</time></trkpt>
<trkpt lat="31.6365" lon="34.9763">
<ele>400</ele>
<time>2021-04-08T01:10:24Z</time></trkpt>
<trkpt lat="31.63683" lon="34.97648">
<ele>399</ele>
<time>2021-04-08T01:10:32Z</time></trkpt>
<trkpt lat="31.63696" lon="34.97653">
<ele>399</ele>
<time>2021-04-08T01:10:34Z</time></trkpt>
<trkpt lat="31.63724" lon="34.97672">
<ele>400</ele>
<time>2021-04-08T01:10:41Z</time></trkpt>
<trkpt lat="31.6373" lon="34.97679">
<ele>401</ele>
<time>2021-04-08T01:10:43Z</time></trkpt>
<trkpt lat="31.63754" lon="34.97717">
<ele>404</ele>
<time>2021-04-08T01:10:51Z</time></trkpt>
<trkpt lat="31.63764" lon="34.97739">
<ele>405</ele>
<time>2021-04-08T01:10:55Z</time></trkpt>
<trkpt lat="31.63765" lon="34.9775">
<ele>406</ele>
<time>2021-04-08T01:10:57Z</time></trkpt>
<trkpt lat="31.63765" lon="34.97762">
<ele>407</ele>
<time>2021-04-08T01:10:59Z</time></trkpt>
<trkpt lat="31.63769" lon="34.97771">
<ele>407</ele>
<time>2021-04-08T01:11:01Z</time></trkpt>
<trkpt lat="31.63771" lon="34.97794">
<ele>409</ele>
<time>2021-04-08T01:11:05Z</time></trkpt>
<trkpt lat="31.6377" lon="34.97817">
<ele>411</ele>
<time>2021-04-08T01:11:08Z</time></trkpt>
<trkpt lat="31.6376" lon="34.97862">
<ele>415</ele>
<time>2021-04-08T01:11:16Z</time></trkpt>
<trkpt lat="31.63759" lon="34.97897">
<ele>417</ele>
<time>2021-04-08T01:11:22Z</time></trkpt>
<trkpt lat="31.63766" lon="34.97953">
<ele>420</ele>
<time>2021-04-08T01:11:32Z</time></trkpt>
<trkpt lat="31.6377" lon="34.97961">
<ele>420</ele>
<time>2021-04-08T01:11:34Z</time></trkpt>
<trkpt lat="31.63784" lon="34.97977">
<ele>420</ele>
<time>2021-04-08T01:11:38Z</time></trkpt>
<trkpt lat="31.63802" lon="34.97993">
<ele>421</ele>
<time>2021-04-08T01:11:42Z</time></trkpt>
<trkpt lat="31.63842" lon="34.98019">
<ele>422</ele>
<time>2021-04-08T01:11:51Z</time></trkpt>
<trkpt lat="31.63886" lon="34.98062">
<ele>426</ele>
<time>2021-04-08T01:12:03Z</time></trkpt>
<trkpt lat="31.63893" lon="34.98097">
<ele>427</ele>
<time>2021-04-08T01:12:09Z</time></trkpt>
<trkpt lat="31.63896" lon="34.98154">
<ele>427</ele>
<time>2021-04-08T01:12:19Z</time></trkpt>
<trkpt lat="31.63887" lon="34.9824">
<ele>425</ele>
<time>2021-04-08T01:12:33Z</time></trkpt>
<trkpt lat="31.63879" lon="34.983">
<ele>426</ele>
<time>2021-04-08T01:12:44Z</time></trkpt>
<trkpt lat="31.63879" lon="34.98317">
<ele>426</ele>
<time>2021-04-08T01:12:47Z</time></trkpt>
<trkpt lat="31.63882" lon="34.98328">
<ele>426</ele>
<time>2021-04-08T01:12:49Z</time></trkpt>
<trkpt lat="31.63894" lon="34.9834">
<ele>426</ele>
<time>2021-04-08T01:12:52Z</time></trkpt>
<trkpt lat="31.63909" lon="34.98344">
<ele>424</ele>
<time>2021-04-08T01:12:55Z</time></trkpt>
<trkpt lat="31.6392" lon="34.98341">
<ele>424</ele>
<time>2021-04-08T01:12:57Z</time></trkpt>
<trkpt lat="31.6394" lon="34.98329">
<ele>423</ele>
<time>2021-04-08T01:13:02Z</time></trkpt>
<trkpt lat="31.6396" lon="34.98309">
<ele>421</ele>
<time>2021-04-08T01:13:07Z</time></trkpt>
<trkpt lat="31.63973" lon="34.983">
<ele>421</ele>
<time>2021-04-08T01:13:10Z</time></trkpt>
<trkpt lat="31.64027" lon="34.98276">
<ele>417</ele>
<time>2021-04-08T01:13:21Z</time></trkpt>
<trkpt lat="31.64038" lon="34.98273">
<ele>417</ele>
<time>2021-04-08T01:13:24Z</time></trkpt>
<trkpt lat="31.64051" lon="34.98271">
<ele>416</ele>
<time>2021-04-08T01:13:26Z</time></trkpt>
<trkpt lat="31.64093" lon="34.98278">
<ele>415</ele>
<time>2021-04-08T01:13:35Z</time></trkpt>
<trkpt lat="31.64121" lon="34.98289">
<ele>414</ele>
<time>2021-04-08T01:13:41Z</time></trkpt>
<trkpt lat="31.64155" lon="34.98309">
<ele>413</ele>
<time>2021-04-08T01:13:48Z</time></trkpt>
<trkpt lat="31.64168" lon="34.98319">
<ele>413</ele>
<time>2021-04-08T01:13:51Z</time></trkpt>
<trkpt lat="31.64174" lon="34.98328">
<ele>413</ele>
<time>2021-04-08T01:13:53Z</time></trkpt>
<trkpt lat="31.64181" lon="34.98342">
<ele>414</ele>
<time>2021-04-08T01:13:56Z</time></trkpt>
<trkpt lat="31.64188" lon="34.98368">
<ele>415</ele>
<time>2021-04-08T01:14:01Z</time></trkpt>
<trkpt lat="31.6419" lon="34.98396">
<ele>416</ele>
<time>2021-04-08T01:14:06Z</time></trkpt>
<trkpt lat="31.64192" lon="34.9841">
<ele>416</ele>
<time>2021-04-08T01:14:08Z</time></trkpt>
<trkpt lat="31.64198" lon="34.98422">
<ele>417</ele>
<time>2021-04-08T01:14:10Z</time></trkpt>
<trkpt lat="31.64209" lon="34.98425">
<ele>417</ele>
<time>2021-04-08T01:14:13Z</time></trkpt>
<trkpt lat="31.64218" lon="34.98421">
<ele>417</ele>
<time>2021-04-08T01:14:15Z</time></trkpt>
<trkpt lat="31.64237" lon="34.98403">
<ele>415</ele>
<time>2021-04-08T01:14:19Z</time></trkpt>
<trkpt lat="31.64249" lon="34.98394">
<ele>415</ele>
<time>2021-04-08T01:14:22Z</time></trkpt>
<trkpt lat="31.64277" lon="34.98379">
<ele>416</ele>
<time>2021-04-08T01:14:29Z</time></trkpt>
<trkpt lat="31.64283" lon="34.98372">
<ele>417</ele>
<time>2021-04-08T01:14:30Z</time></trkpt>
<trkpt lat="31.64286" lon="34.98367">
<ele>417</ele>
<time>2021-04-08T01:14:31Z</time></trkpt>
<trkpt lat="31.64288" lon="34.98358">
<ele>416</ele>
<time>2021-04-08T01:14:33Z</time></trkpt>
<trkpt lat="31.6429" lon="34.98323">
<ele>415</ele>
<time>2021-04-08T01:14:39Z</time></trkpt>
<trkpt lat="31.64293" lon="34.98312">
<ele>414</ele>
<time>2021-04-08T01:14:41Z</time></trkpt>
<trkpt lat="31.64303" lon="34.9829">
<ele>414</ele>
<time>2021-04-08T01:14:45Z</time></trkpt>
<trkpt lat="31.64321" lon="34.98275">
<ele>415</ele>
<time>2021-04-08T01:14:49Z</time></trkpt>
<trkpt lat="31.64336" lon="34.98268">
<ele>415</ele>
<time>2021-04-08T01:14:53Z</time></trkpt>
<trkpt lat="31.64352" lon="34.98263">
<ele>415</ele>
<time>2021-04-08T01:14:56Z</time></trkpt>
<trkpt lat="31.64395" lon="34.98257">
<ele>416</ele>
<time>2021-04-08T01:15:05Z</time></trkpt>
<trkpt lat="31.64441" lon="34.98257">
<ele>416</ele>
<time>2021-04-08T01:15:14Z</time></trkpt>
<trkpt lat="31.6447" lon="34.98259">
<ele>416</ele>
<time>2021-04-08T01:15:20Z</time></trkpt>
<trkpt lat="31.64488" lon="34.98263">
<ele>416</ele>
<time>2021-04-08T01:15:23Z</time></trkpt>
<trkpt lat="31.64507" lon="34.98263">
<ele>416</ele>
<time>2021-04-08T01:15:27Z</time></trkpt>
<trkpt lat="31.64527" lon="34.98255">
<ele>416</ele>
<time>2021-04-08T01:15:31Z</time></trkpt>
<trkpt lat="31.64546" lon="34.98237">
<ele>416</ele>
<time>2021-04-08T01:15:36Z</time></trkpt>
<trkpt lat="31.64599" lon="34.9816">
<ele>413</ele>
<time>2021-04-08T01:15:53Z</time></trkpt>
<trkpt lat="31.6463" lon="34.98095">
<ele>412</ele>
<time>2021-04-08T01:16:06Z</time></trkpt>
<trkpt lat="31.64642" lon="34.98078">
<ele>411</ele>
<time>2021-04-08T01:16:10Z</time></trkpt>
<trkpt lat="31.6465" lon="34.98071">
<ele>411</ele>
<time>2021-04-08T01:16:12Z</time></trkpt>
<trkpt lat="31.6466" lon="34.98066">
<ele>411</ele>
<time>2021-04-08T01:16:14Z</time></trkpt>
<trkpt lat="31.64671" lon="34.98066">
<ele>411</ele>
<time>2021-04-08T01:16:16Z</time></trkpt>
<trkpt lat="31.64679" lon="34.98073">
<ele>410</ele>
<time>2021-04-08T01:16:18Z</time></trkpt>
<trkpt lat="31.64692" lon="34.98098">
<ele>408</ele>
<time>2021-04-08T01:16:23Z</time></trkpt>
<trkpt lat="31.64711" lon="34.98153">
<ele>407</ele>
<time>2021-04-08T01:16:33Z</time></trkpt>
<trkpt lat="31.64717" lon="34.98169">
<ele>407</ele>
<time>2021-04-08T01:16:36Z</time></trkpt>
<trkpt lat="31.64728" lon="34.98178">
<ele>407</ele>
<time>2021-04-08T01:16:39Z</time></trkpt>
<trkpt lat="31.64742" lon="34.98179">
<ele>406</ele>
<time>2021-04-08T01:16:42Z</time></trkpt>
<trkpt lat="31.64754" lon="34.98173">
<ele>405</ele>
<time>2021-04-08T01:16:44Z</time></trkpt>
<trkpt lat="31.64778" lon="34.98153">
<ele>403</ele>
<time>2021-04-08T01:16:50Z</time></trkpt>
<trkpt lat="31.64803" lon="34.98141">
<ele>401</ele>
<time>2021-04-08T01:16:56Z</time></trkpt>
<trkpt lat="31.64831" lon="34.98134">
<ele>399</ele>
<time>2021-04-08T01:17:01Z</time></trkpt>
<trkpt lat="31.64863" lon="34.98131">
<ele>397</ele>
<time>2021-04-08T01:17:08Z</time></trkpt>
<trkpt lat="31.64943" lon="34.9813">
<ele>389</ele>
<time>2021-04-08T01:17:24Z</time></trkpt>
<trkpt lat="31.6496" lon="34.98135">
<ele>387</ele>
<time>2021-04-08T01:17:27Z</time></trkpt>
<trkpt lat="31.64976" lon="34.98148">
<ele>384</ele>
<time>2021-04-08T01:17:31Z</time></trkpt>
<trkpt lat="31.64995" lon="34.9817">
<ele>381</ele>
<time>2021-04-08T01:17:37Z</time></trkpt>
<trkpt lat="31.65002" lon="34.98188">
<ele>380</ele>
<time>2021-04-08T01:17:40Z</time></trkpt>
<trkpt lat="31.65009" lon="34.9821">
<ele>379</ele>
<time>2021-04-08T01:17:44Z</time></trkpt>
<trkpt lat="31.65013" lon="34.98249">
<ele>379</ele>
<time>2021-04-08T01:17:51Z</time></trkpt>
<trkpt lat="31.6501" lon="34.98268">
<ele>379</ele>
<time>2021-04-08T01:17:54Z</time></trkpt>
<trkpt lat="31.65" lon="34.98306">
<ele>379</ele>
<time>2021-04-08T01:18:01Z</time></trkpt>
<trkpt lat="31.64999" lon="34.98322">
<ele>379</ele>
<time>2021-04-08T01:18:03Z</time></trkpt>
<trkpt lat="31.65005" lon="34.98331">
<ele>379</ele>
<time>2021-04-08T01:18:05Z</time></trkpt>
<trkpt lat="31.65015" lon="34.98332">
<ele>380</ele>
<time>2021-04-08T01:18:07Z</time></trkpt>
<trkpt lat="31.65045" lon="34.98313">
<ele>381</ele>
<time>2021-04-08T01:18:14Z</time></trkpt>
<trkpt lat="31.65064" lon="34.98306">
<ele>381</ele>
<time>2021-04-08T01:18:18Z</time></trkpt>
<trkpt lat="31.6509" lon="34.98301">
<ele>380</ele>
<time>2021-04-08T01:18:24Z</time></trkpt>
<trkpt lat="31.65119" lon="34.98307">
<ele>381</ele>
<time>2021-04-08T01:18:29Z</time></trkpt>
<trkpt lat="31.65146" lon="34.98323">
<ele>384</ele>
<time>2021-04-08T01:18:35Z</time></trkpt>
<trkpt lat="31.65152" lon="34.9833">
<ele>385</ele>
<time>2021-04-08T01:18:37Z</time></trkpt>
<trkpt lat="31.65169" lon="34.98364">
<ele>389</ele>
<time>2021-04-08T01:18:44Z</time></trkpt>
<trkpt lat="31.65183" lon="34.98409">
<ele>393</ele>
<time>2021-04-08T01:18:52Z</time></trkpt>
<trkpt lat="31.65191" lon="34.98449">
<ele>400</ele>
<time>2021-04-08T01:18:59Z</time></trkpt>
<trkpt lat="31.65197" lon="34.98458">
<ele>401</ele>
<time>2021-04-08T01:19:01Z</time></trkpt>
<trkpt lat="31.65204" lon="34.98466">
<ele>402</ele>
<time>2021-04-08T01:19:03Z</time></trkpt>
<trkpt lat="31.65222" lon="34.98477">
<ele>402</ele>
<time>2021-04-08T01:19:07Z</time></trkpt>
<trkpt lat="31.65242" lon="34.98481">
<ele>400</ele>
<time>2021-04-08T01:19:11Z</time></trkpt>
<trkpt lat="31.65269" lon="34.98494">
<ele>399</ele>
<time>2021-04-08T01:19:17Z</time></trkpt>
<trkpt lat="31.65301" lon="34.98521">
<ele>399</ele>
<time>2021-04-08T01:19:25Z</time></trkpt>
<trkpt lat="31.65324" lon="34.9855">
<ele>400</ele>
<time>2021-04-08T01:19:32Z</time></trkpt>
<trkpt lat="31.6534" lon="34.98578">
<ele>401</ele>
<time>2021-04-08T01:19:37Z</time></trkpt>
<trkpt lat="31.65347" lon="34.98596">
<ele>400</ele>
<time>2021-04-08T01:19:41Z</time></trkpt>
<trkpt lat="31.65356" lon="34.98628">
<ele>399</ele>
<time>2021-04-08T01:19:46Z</time></trkpt>
<trkpt lat="31.65358" lon="34.98653">
<ele>399</ele>
<time>2021-04-08T01:19:51Z</time></trkpt>
<trkpt lat="31.65356" lon="34.98668">
<ele>400</ele>
<time>2021-04-08T01:19:53Z</time></trkpt>
<trkpt lat="31.65352" lon="34.98682">
<ele>400</ele>
<time>2021-04-08T01:19:56Z</time></trkpt>
<trkpt lat="31.65342" lon="34.987">
<ele>400</ele>
<time>2021-04-08T01:20:00Z</time></trkpt>
<trkpt lat="31.65328" lon="34.98719">
<ele>401</ele>
<time>2021-04-08T01:20:04Z</time></trkpt>
<trkpt lat="31.65295" lon="34.98751">
<ele>403</ele>
<time>2021-04-08T01:20:12Z</time></trkpt>
<trkpt lat="31.65268" lon="34.98784">
<ele>404</ele>
<time>2021-04-08T01:20:20Z</time></trkpt>
<trkpt lat="31.65263" lon="34.98793">
<ele>403</ele>
<time>2021-04-08T01:20:22Z</time></trkpt>
<trkpt lat="31.65257" lon="34.98811">
<ele>402</ele>
<time>2021-04-08T01:20:25Z</time></trkpt>
<trkpt lat="31.65253" lon="34.98836">
<ele>400</ele>
<time>2021-04-08T01:20:30Z</time></trkpt>
<trkpt lat="31.65254" lon="34.98855">
<ele>399</ele>
<time>2021-04-08T01:20:33Z</time></trkpt>
<trkpt lat="31.65271" lon="34.98974">
<ele>394</ele>
<time>2021-04-08T01:20:54Z</time></trkpt>
<trkpt lat="31.65271" lon="34.98973">
<ele>394</ele>
<time>2021-04-08T01:20:54Z</time></trkpt>
<trkpt lat="31.65274" lon="34.98993">
<ele>393</ele>
<time>2021-04-08T01:20:57Z</time></trkpt>
<trkpt lat="31.6527" lon="34.99015">
<ele>393</ele>
<time>2021-04-08T01:21:01Z</time></trkpt>
<trkpt lat="31.65265" lon="34.99031">
<ele>393</ele>
<time>2021-04-08T01:21:04Z</time></trkpt>
<trkpt lat="31.65257" lon="34.99048">
<ele>393</ele>
<time>2021-04-08T01:21:07Z</time></trkpt>
<trkpt lat="31.65244" lon="34.99058">
<ele>394</ele>
<time>2021-04-08T01:21:10Z</time></trkpt>
<trkpt lat="31.65254" lon="34.99091">
<ele>393</ele>
<time>2021-04-08T01:21:16Z</time></trkpt>
<trkpt lat="31.65286" lon="34.99141">
<ele>396</ele>
<time>2021-04-08T01:21:27Z</time></trkpt>
<trkpt lat="31.65315" lon="34.99152">
<ele>397</ele>
<time>2021-04-08T01:21:33Z</time></trkpt>
<trkpt lat="31.65326" lon="34.99154">
<ele>397</ele>
<time>2021-04-08T01:21:35Z</time></trkpt>
<trkpt lat="31.65329" lon="34.99095">
<ele>394</ele>
<time>2021-04-08T01:21:45Z</time></trkpt>
<trkpt lat="31.65334" lon="34.99061">
<ele>392</ele>
<time>2021-04-08T01:21:51Z</time></trkpt>
<trkpt lat="31.65366" lon="34.98939">
<ele>391</ele>
<time>2021-04-08T01:22:13Z</time></trkpt>
<trkpt lat="31.6538" lon="34.98901">
<ele>390</ele>
<time>2021-04-08T01:22:20Z</time></trkpt>
<trkpt lat="31.65388" lon="34.98888">
<ele>390</ele>
<time>2021-04-08T01:22:23Z</time></trkpt>
<trkpt lat="31.65432" lon="34.98832">
<ele>387</ele>
<time>2021-04-08T01:22:36Z</time></trkpt>
<trkpt lat="31.65448" lon="34.98811">
<ele>387</ele>
<time>2021-04-08T01:22:41Z</time></trkpt>
<trkpt lat="31.65465" lon="34.98781">
<ele>386</ele>
<time>2021-04-08T01:22:47Z</time></trkpt>
<trkpt lat="31.6548" lon="34.98749">
<ele>384</ele>
<time>2021-04-08T01:22:53Z</time></trkpt>
<trkpt lat="31.6549" lon="34.98725">
<ele>383</ele>
<time>2021-04-08T01:22:58Z</time></trkpt>
<trkpt lat="31.655" lon="34.98695">
<ele>380</ele>
<time>2021-04-08T01:23:03Z</time></trkpt>
<trkpt lat="31.65503" lon="34.98681">
<ele>379</ele>
<time>2021-04-08T01:23:06Z</time></trkpt>
<trkpt lat="31.6551" lon="34.98618">
<ele>377</ele>
<time>2021-04-08T01:23:16Z</time></trkpt>
<trkpt lat="31.65509" lon="34.98603">
<ele>376</ele>
<time>2021-04-08T01:23:19Z</time></trkpt>
<trkpt lat="31.65504" lon="34.98575">
<ele>375</ele>
<time>2021-04-08T01:23:24Z</time></trkpt>
<trkpt lat="31.65472" lon="34.98493">
<ele>377</ele>
<time>2021-04-08T01:23:39Z</time></trkpt>
<trkpt lat="31.65465" lon="34.98482">
<ele>377</ele>
<time>2021-04-08T01:23:42Z</time></trkpt>
<trkpt lat="31.65371" lon="34.98362">
<ele>376</ele>
<time>2021-04-08T01:24:09Z</time></trkpt>
<trkpt lat="31.65363" lon="34.98349">
<ele>375</ele>
<time>2021-04-08T01:24:12Z</time></trkpt>
<trkpt lat="31.65302" lon="34.98229">
<ele>370</ele>
<time>2021-04-08T01:24:36Z</time></trkpt>
<trkpt lat="31.65263" lon="34.98168">
<ele>366</ele>
<time>2021-04-08T01:24:49Z</time></trkpt>
<trkpt lat="31.65256" lon="34.98153">
<ele>365</ele>
<time>2021-04-08T01:24:52Z</time></trkpt>
<trkpt lat="31.65251" lon="34.98138">
<ele>364</ele>
<time>2021-04-08T01:24:55Z</time></trkpt>
<trkpt lat="31.6525" lon="34.98122">
<ele>363</ele>
<time>2021-04-08T01:24:57Z</time></trkpt>
<trkpt lat="31.65254" lon="34.98086">
<ele>364</ele>
<time>2021-04-08T01:25:04Z</time></trkpt>
<trkpt lat="31.65259" lon="34.98054">
<ele>364</ele>
<time>2021-04-08T01:25:09Z</time></trkpt>
<trkpt lat="31.65294" lon="34.97951">
<ele>366</ele>
<time>2021-04-08T01:25:28Z</time></trkpt>
<trkpt lat="31.65321" lon="34.97853">
<ele>361</ele>
<time>2021-04-08T01:25:46Z</time></trkpt>
<trkpt lat="31.65328" lon="34.97834">
<ele>360</ele>
<time>2021-04-08T01:25:49Z</time></trkpt>
<trkpt lat="31.65323" lon="34.97804">
<ele>361</ele>
<time>2021-04-08T01:25:54Z</time></trkpt>
<trkpt lat="31.65301" lon="34.97736">
<ele>361</ele>
<time>2021-04-08T01:26:07Z</time></trkpt>
<trkpt lat="31.65291" lon="34.97678">
<ele>358</ele>
<time>2021-04-08T01:26:17Z</time></trkpt>
<trkpt lat="31.65284" lon="34.97651">
<ele>357</ele>
<time>2021-04-08T01:26:22Z</time></trkpt>
<trkpt lat="31.65283" lon="34.97651">
<ele>357</ele>
<time>2021-04-08T01:26:22Z</time></trkpt>
<trkpt lat="31.65282" lon="34.97644">
<ele>357</ele>
<time>2021-04-08T01:26:23Z</time></trkpt>
<trkpt lat="31.6527" lon="34.97621">
<ele>355</ele>
<time>2021-04-08T01:26:28Z</time></trkpt>
<trkpt lat="31.6525" lon="34.97592">
<ele>353</ele>
<time>2021-04-08T01:26:34Z</time></trkpt>
<trkpt lat="31.6524" lon="34.97569">
<ele>353</ele>
<time>2021-04-08T01:26:38Z</time></trkpt>
<trkpt lat="31.65238" lon="34.97556">
<ele>353</ele>
<time>2021-04-08T01:26:41Z</time></trkpt>
<trkpt lat="31.6524" lon="34.97532">
<ele>352</ele>
<time>2021-04-08T01:26:45Z</time></trkpt>
<trkpt lat="31.65246" lon="34.9751">
<ele>351</ele>
<time>2021-04-08T01:26:49Z</time></trkpt>
<trkpt lat="31.6525" lon="34.97499">
<ele>350</ele>
<time>2021-04-08T01:26:51Z</time></trkpt>
<trkpt lat="31.65301" lon="34.974">
<ele>351</ele>
<time>2021-04-08T01:27:11Z</time></trkpt>
<trkpt lat="31.65306" lon="34.97377">
<ele>350</ele>
<time>2021-04-08T01:27:15Z</time></trkpt>
<trkpt lat="31.65309" lon="34.97322">
<ele>349</ele>
<time>2021-04-08T01:27:24Z</time></trkpt>
<trkpt lat="31.65312" lon="34.97305">
<ele>349</ele>
<time>2021-04-08T01:27:27Z</time></trkpt>
<trkpt lat="31.65324" lon="34.97266">
<ele>348</ele>
<time>2021-04-08T01:27:34Z</time></trkpt>
<trkpt lat="31.6534" lon="34.97224">
<ele>347</ele>
<time>2021-04-08T01:27:42Z</time></trkpt>
<trkpt lat="31.65364" lon="34.97176">
<ele>348</ele>
<time>2021-04-08T01:27:51Z</time></trkpt>
<trkpt lat="31.65369" lon="34.9716">
<ele>348</ele>
<time>2021-04-08T01:27:54Z</time></trkpt>
<trkpt lat="31.65381" lon="34.97092">
<ele>345</ele>
<time>2021-04-08T01:28:06Z</time></trkpt>
<trkpt lat="31.65406" lon="34.97045">
<ele>343</ele>
<time>2021-04-08T01:28:16Z</time></trkpt>
<trkpt lat="31.65436" lon="34.96982">
<ele>342</ele>
<time>2021-04-08T01:28:28Z</time></trkpt>
<trkpt lat="31.65442" lon="34.96967">
<ele>342</ele>
<time>2021-04-08T01:28:31Z</time></trkpt>
<trkpt lat="31.65448" lon="34.96939">
<ele>342</ele>
<time>2021-04-08T01:28:36Z</time></trkpt>
<trkpt lat="31.65452" lon="34.96831">
<ele>342</ele>
<time>2021-04-08T01:28:54Z</time></trkpt>
<trkpt lat="31.65448" lon="34.96812">
<ele>342</ele>
<time>2021-04-08T01:28:57Z</time></trkpt>
<trkpt lat="31.65451" lon="34.96786">
<ele>342</ele>
<time>2021-04-08T01:29:02Z</time></trkpt>
<trkpt lat="31.65457" lon="34.96769">
<ele>342</ele>
<time>2021-04-08T01:29:05Z</time></trkpt>
<trkpt lat="31.65487" lon="34.96714">
<ele>341</ele>
<time>2021-04-08T01:29:16Z</time></trkpt>
<trkpt lat="31.65502" lon="34.96682">
<ele>338</ele>
<time>2021-04-08T01:29:22Z</time></trkpt>
<trkpt lat="31.65548" lon="34.96577">
<ele>340</ele>
<time>2021-04-08T01:29:43Z</time></trkpt>
<trkpt lat="31.65581" lon="34.96497">
<ele>333</ele>
<time>2021-04-08T01:29:58Z</time></trkpt>
<trkpt lat="31.65602" lon="34.96458">
<ele>333</ele>
<time>2021-04-08T01:30:06Z</time></trkpt>
<trkpt lat="31.65637" lon="34.9641">
<ele>332</ele>
<time>2021-04-08T01:30:16Z</time></trkpt>
<trkpt lat="31.65643" lon="34.96399">
<ele>332</ele>
<time>2021-04-08T01:30:19Z</time></trkpt>
<trkpt lat="31.65653" lon="34.96374">
<ele>331</ele>
<time>2021-04-08T01:30:23Z</time></trkpt>
<trkpt lat="31.657" lon="34.96237">
<ele>330</ele>
<time>2021-04-08T01:30:48Z</time></trkpt>
<trkpt lat="31.65707" lon="34.96195">
<ele>329</ele>
<time>2021-04-08T01:30:56Z</time></trkpt>
<trkpt lat="31.65715" lon="34.96152">
<ele>328</ele>
<time>2021-04-08T01:31:03Z</time></trkpt>
<trkpt lat="31.65723" lon="34.96118">
<ele>326</ele>
<time>2021-04-08T01:31:09Z</time></trkpt>
<trkpt lat="31.6574" lon="34.96064">
<ele>324</ele>
<time>2021-04-08T01:31:19Z</time></trkpt>
<trkpt lat="31.6575" lon="34.96035">
<ele>323</ele>
<time>2021-04-08T01:31:24Z</time></trkpt>
<trkpt lat="31.65773" lon="34.95995">
<ele>323</ele>
<time>2021-04-08T01:31:33Z</time></trkpt>
<trkpt lat="31.65789" lon="34.95977">
<ele>323</ele>
<time>2021-04-08T01:31:37Z</time></trkpt>
<trkpt lat="31.65801" lon="34.95967">
<ele>323</ele>
<time>2021-04-08T01:31:40Z</time></trkpt>
<trkpt lat="31.65815" lon="34.95959">
<ele>322</ele>
<time>2021-04-08T01:31:43Z</time></trkpt>
<trkpt lat="31.65841" lon="34.95948">
<ele>322</ele>
<time>2021-04-08T01:31:49Z</time></trkpt>
<trkpt lat="31.65899" lon="34.95928">
<ele>323</ele>
<time>2021-04-08T01:32:01Z</time></trkpt>
<trkpt lat="31.65936" lon="34.95914">
<ele>323</ele>
<time>2021-04-08T01:32:09Z</time></trkpt>
<trkpt lat="31.65944" lon="34.95909">
<ele>323</ele>
<time>2021-04-08T01:32:10Z</time></trkpt>
<trkpt lat="31.65952" lon="34.95901">
<ele>323</ele>
<time>2021-04-08T01:32:13Z</time></trkpt>
<trkpt lat="31.65958" lon="34.95892">
<ele>323</ele>
<time>2021-04-08T01:32:14Z</time></trkpt>
<trkpt lat="31.6596" lon="34.95885">
<ele>323</ele>
<time>2021-04-08T01:32:16Z</time></trkpt>
<trkpt lat="31.65961" lon="34.95877">
<ele>323</ele>
<time>2021-04-08T01:32:17Z</time></trkpt>
<trkpt lat="31.6596" lon="34.95866">
<ele>323</ele>
<time>2021-04-08T01:32:19Z</time></trkpt>
<trkpt lat="31.65956" lon="34.95859">
<ele>323</ele>
<time>2021-04-08T01:32:20Z</time></trkpt>
<trkpt lat="31.65932" lon="34.95832">
<ele>321</ele>
<time>2021-04-08T01:32:27Z</time></trkpt>
<trkpt lat="31.6588" lon="34.95782">
<ele>319</ele>
<time>2021-04-08T01:32:41Z</time></trkpt>
<trkpt lat="31.65862" lon="34.9576">
<ele>318</ele>
<time>2021-04-08T01:32:46Z</time></trkpt>
<trkpt lat="31.65856" lon="34.95747">
<ele>318</ele>
<time>2021-04-08T01:32:48Z</time></trkpt>
<trkpt lat="31.65846" lon="34.95714">
<ele>317</ele>
<time>2021-04-08T01:32:54Z</time></trkpt>
<trkpt lat="31.65842" lon="34.95685">
<ele>316</ele>
<time>2021-04-08T01:32:59Z</time></trkpt>
<trkpt lat="31.65841" lon="34.95666">
<ele>316</ele>
<time>2021-04-08T01:33:03Z</time></trkpt>
<trkpt lat="31.65843" lon="34.95637">
<ele>316</ele>
<time>2021-04-08T01:33:07Z</time></trkpt>
<trkpt lat="31.6585" lon="34.95613">
<ele>316</ele>
<time>2021-04-08T01:33:12Z</time></trkpt>
<trkpt lat="31.65897" lon="34.95519">
<ele>315</ele>
<time>2021-04-08T01:33:30Z</time></trkpt>
<trkpt lat="31.65906" lon="34.95497">
<ele>314</ele>
<time>2021-04-08T01:33:35Z</time></trkpt>
<trkpt lat="31.6591" lon="34.9548">
<ele>313</ele>
<time>2021-04-08T01:33:38Z</time></trkpt>
<trkpt lat="31.65912" lon="34.95443">
<ele>312</ele>
<time>2021-04-08T01:33:44Z</time></trkpt>
<trkpt lat="31.65912" lon="34.95378">
<ele>310</ele>
<time>2021-04-08T01:33:55Z</time></trkpt>
<trkpt lat="31.65916" lon="34.95339">
<ele>309</ele>
<time>2021-04-08T01:34:02Z</time></trkpt>
<trkpt lat="31.65928" lon="34.95273">
<ele>308</ele>
<time>2021-04-08T01:34:13Z</time></trkpt>
<trkpt lat="31.65946" lon="34.95209">
<ele>308</ele>
<time>2021-04-08T01:34:25Z</time></trkpt>
<trkpt lat="31.65957" lon="34.9516">
<ele>306</ele>
<time>2021-04-08T01:34:33Z</time></trkpt>
<trkpt lat="31.65962" lon="34.95147">
<ele>306</ele>
<time>2021-04-08T01:34:36Z</time></trkpt>
<trkpt lat="31.65968" lon="34.95136">
<ele>305</ele>
<time>2021-04-08T01:34:38Z</time></trkpt>
<trkpt lat="31.66006" lon="34.95083">
<ele>301</ele>
<time>2021-04-08T01:34:50Z</time></trkpt>
<trkpt lat="31.66012" lon="34.95077">
<ele>301</ele>
<time>2021-04-08T01:34:51Z</time></trkpt>
<trkpt lat="31.66021" lon="34.95071">
<ele>301</ele>
<time>2021-04-08T01:34:53Z</time></trkpt>
<trkpt lat="31.66041" lon="34.95065">
<ele>301</ele>
<time>2021-04-08T01:34:58Z</time></trkpt>
<trkpt lat="31.66052" lon="34.95064">
<ele>301</ele>
<time>2021-04-08T01:35:00Z</time></trkpt>
<trkpt lat="31.66068" lon="34.95067">
<ele>301</ele>
<time>2021-04-08T01:35:03Z</time></trkpt>
<trkpt lat="31.66107" lon="34.95083">
<ele>303</ele>
<time>2021-04-08T01:35:11Z</time></trkpt>
<trkpt lat="31.66123" lon="34.95087">
<ele>303</ele>
<time>2021-04-08T01:35:15Z</time></trkpt>
<trkpt lat="31.66136" lon="34.95086">
<ele>303</ele>
<time>2021-04-08T01:35:17Z</time></trkpt>
<trkpt lat="31.66173" lon="34.95066">
<ele>304</ele>
<time>2021-04-08T01:35:25Z</time></trkpt>
<trkpt lat="31.66192" lon="34.95051">
<ele>306</ele>
<time>2021-04-08T01:35:30Z</time></trkpt>
<trkpt lat="31.66209" lon="34.95028">
<ele>306</ele>
<time>2021-04-08T01:35:35Z</time></trkpt>
<trkpt lat="31.66215" lon="34.95014">
<ele>306</ele>
<time>2021-04-08T01:35:38Z</time></trkpt>
<trkpt lat="31.66219" lon="34.94998">
<ele>305</ele>
<time>2021-04-08T01:35:41Z</time></trkpt>
<trkpt lat="31.66236" lon="34.94862">
<ele>296</ele>
<time>2021-04-08T01:36:04Z</time></trkpt>
<trkpt lat="31.6625" lon="34.94829">
<ele>294</ele>
<time>2021-04-08T01:36:10Z</time></trkpt>
<trkpt lat="31.66272" lon="34.94791">
<ele>293</ele>
<time>2021-04-08T01:36:18Z</time></trkpt>
<trkpt lat="31.66287" lon="34.94774">
<ele>292</ele>
<time>2021-04-08T01:36:22Z</time></trkpt>
<trkpt lat="31.66327" lon="34.94741">
<ele>290</ele>
<time>2021-04-08T01:36:32Z</time></trkpt>
<trkpt lat="31.66342" lon="34.94737">
<ele>290</ele>
<time>2021-04-08T01:36:35Z</time></trkpt>
<trkpt lat="31.66389" lon="34.94733">
<ele>293</ele>
<time>2021-04-08T01:36:45Z</time></trkpt>
<trkpt lat="31.66398" lon="34.94728">
<ele>293</ele>
<time>2021-04-08T01:36:47Z</time></trkpt>
<trkpt lat="31.66404" lon="34.94718">
<ele>292</ele>
<time>2021-04-08T01:36:49Z</time></trkpt>
<trkpt lat="31.66423" lon="34.94643">
<ele>288</ele>
<time>2021-04-08T01:37:02Z</time></trkpt>
<trkpt lat="31.66431" lon="34.94629">
<ele>288</ele>
<time>2021-04-08T01:37:05Z</time></trkpt>
<trkpt lat="31.66445" lon="34.94616">
<ele>288</ele>
<time>2021-04-08T01:37:09Z</time></trkpt>
<trkpt lat="31.66488" lon="34.94595">
<ele>287</ele>
<time>2021-04-08T01:37:18Z</time></trkpt>
<trkpt lat="31.66541" lon="34.94593">
<ele>286</ele>
<time>2021-04-08T01:37:29Z</time></trkpt>
<trkpt lat="31.66587" lon="34.94585">
<ele>284</ele>
<time>2021-04-08T01:37:38Z</time></trkpt>
<trkpt lat="31.66636" lon="34.94569">
<ele>284</ele>
<time>2021-04-08T01:37:48Z</time></trkpt>
<trkpt lat="31.66744" lon="34.94548">
<ele>284</ele>
<time>2021-04-08T01:38:10Z</time></trkpt>
<trkpt lat="31.66776" lon="34.94556">
<ele>284</ele>
<time>2021-04-08T01:38:17Z</time></trkpt>
<trkpt lat="31.66776" lon="34.94555">
<ele>284</ele>
<time>2021-04-08T01:38:17Z</time></trkpt>
<trkpt lat="31.66795" lon="34.9456">
<ele>284</ele>
<time>2021-04-08T01:38:21Z</time></trkpt>
<trkpt lat="31.66814" lon="34.94562">
<ele>284</ele>
<time>2021-04-08T01:38:24Z</time></trkpt>
<trkpt lat="31.66826" lon="34.94568">
<ele>284</ele>
<time>2021-04-08T01:38:27Z</time></trkpt>
<trkpt lat="31.66839" lon="34.94588">
<ele>285</ele>
<time>2021-04-08T01:38:31Z</time></trkpt>
<trkpt lat="31.6688" lon="34.94517">
<ele>285</ele>
<time>2021-04-08T01:38:46Z</time></trkpt>
<trkpt lat="31.67009" lon="34.94321">
<ele>278</ele>
<time>2021-04-08T01:39:28Z</time></trkpt>
<trkpt lat="31.6693" lon="34.94281">
<ele>276</ele>
<time>2021-04-08T01:39:46Z</time></trkpt>
<trkpt lat="31.66913" lon="34.94251">
<ele>275</ele>
<time>2021-04-08T01:39:52Z</time></trkpt>
<trkpt lat="31.66924" lon="34.94236">
<ele>275</ele>
<time>2021-04-08T01:39:55Z</time></trkpt>
<trkpt lat="31.66917" lon="34.94222">
<ele>276</ele>
<time>2021-04-08T01:39:58Z</time></trkpt>
<trkpt lat="31.66891" lon="34.9419">
<ele>279</ele>
<time>2021-04-08T01:40:05Z</time></trkpt>
<trkpt lat="31.66843" lon="34.94141">
<ele>284</ele>
<time>2021-04-08T01:40:18Z</time></trkpt>
<trkpt lat="31.66843" lon="34.9414">
<ele>284</ele>
<time>2021-04-08T01:40:18Z</time></trkpt>
<trkpt lat="31.66762" lon="34.94057">
<ele>294</ele>
<time>2021-04-08T01:40:40Z</time></trkpt>
<trkpt lat="31.66745" lon="34.94051">
<ele>295</ele>
<time>2021-04-08T01:40:43Z</time></trkpt>
<trkpt lat="31.66732" lon="34.94049">
<ele>297</ele>
<time>2021-04-08T01:40:46Z</time></trkpt>
<trkpt lat="31.66647" lon="34.94048">
<ele>306</ele>
<time>2021-04-08T01:41:03Z</time></trkpt>
<trkpt lat="31.66632" lon="34.94047">
<ele>307</ele>
<time>2021-04-08T01:41:06Z</time></trkpt>
<trkpt lat="31.6658" lon="34.94038">
<ele>311</ele>
<time>2021-04-08T01:41:17Z</time></trkpt>
<trkpt lat="31.66573" lon="34.94034">
<ele>312</ele>
<time>2021-04-08T01:41:18Z</time></trkpt>
<trkpt lat="31.66569" lon="34.94026">
<ele>313</ele>
<time>2021-04-08T01:41:20Z</time></trkpt>
<trkpt lat="31.66574" lon="34.94017">
<ele>313</ele>
<time>2021-04-08T01:41:22Z</time></trkpt>
<trkpt lat="31.66652" lon="34.93997">
<ele>310</ele>
<time>2021-04-08T01:41:38Z</time></trkpt>
<trkpt lat="31.66676" lon="34.93989">
<ele>310</ele>
<time>2021-04-08T01:41:43Z</time></trkpt>
<trkpt lat="31.66694" lon="34.93978">
<ele>309</ele>
<time>2021-04-08T01:41:47Z</time></trkpt>
<trkpt lat="31.66703" lon="34.93969">
<ele>309</ele>
<time>2021-04-08T01:41:49Z</time></trkpt>
<trkpt lat="31.66739" lon="34.93926">
<ele>310</ele>
<time>2021-04-08T01:41:59Z</time></trkpt>
<trkpt lat="31.66748" lon="34.93912">
<ele>310</ele>
<time>2021-04-08T01:42:02Z</time></trkpt>
<trkpt lat="31.66764" lon="34.93878">
<ele>314</ele>
<time>2021-04-08T01:42:09Z</time></trkpt>
<trkpt lat="31.66768" lon="34.93872">
<ele>314</ele>
<time>2021-04-08T01:42:10Z</time></trkpt>
<trkpt lat="31.66774" lon="34.93868">
<ele>315</ele>
<time>2021-04-08T01:42:12Z</time></trkpt>
<trkpt lat="31.66783" lon="34.93868">
<ele>315</ele>
<time>2021-04-08T01:42:13Z</time></trkpt>
<trkpt lat="31.66792" lon="34.93879">
<ele>314</ele>
<time>2021-04-08T01:42:16Z</time></trkpt>
<trkpt lat="31.66815" lon="34.93919">
<ele>309</ele>
<time>2021-04-08T01:42:24Z</time></trkpt>
<trkpt lat="31.66834" lon="34.93944">
<ele>306</ele>
<time>2021-04-08T01:42:30Z</time></trkpt>
<trkpt lat="31.66843" lon="34.93953">
<ele>304</ele>
<time>2021-04-08T01:42:32Z</time></trkpt>
<trkpt lat="31.66863" lon="34.93966">
<ele>303</ele>
<time>2021-04-08T01:42:37Z</time></trkpt>
<trkpt lat="31.66881" lon="34.9397">
<ele>303</ele>
<time>2021-04-08T01:42:41Z</time></trkpt>
<trkpt lat="31.66904" lon="34.93969">
<ele>303</ele>
<time>2021-04-08T01:42:45Z</time></trkpt>
<trkpt lat="31.66911" lon="34.93966">
<ele>304</ele>
<time>2021-04-08T01:42:47Z</time></trkpt>
<trkpt lat="31.66925" lon="34.93956">
<ele>304</ele>
<time>2021-04-08T01:42:50Z</time></trkpt>
<trkpt lat="31.66942" lon="34.93938">
<ele>305</ele>
<time>2021-04-08T01:42:55Z</time></trkpt>
<trkpt lat="31.6695" lon="34.93925">
<ele>305</ele>
<time>2021-04-08T01:42:57Z</time></trkpt>
<trkpt lat="31.66958" lon="34.93903">
<ele>306</ele>
<time>2021-04-08T01:43:01Z</time></trkpt>
<trkpt lat="31.66967" lon="34.93859">
<ele>306</ele>
<time>2021-04-08T01:43:09Z</time></trkpt>
<trkpt lat="31.6697" lon="34.9381">
<ele>307</ele>
<time>2021-04-08T01:43:17Z</time></trkpt>
<trkpt lat="31.6697" lon="34.93783">
<ele>308</ele>
<time>2021-04-08T01:43:22Z</time></trkpt>
<trkpt lat="31.66968" lon="34.93769">
<ele>309</ele>
<time>2021-04-08T01:43:24Z</time></trkpt>
<trkpt lat="31.66957" lon="34.93729">
<ele>310</ele>
<time>2021-04-08T01:43:32Z</time></trkpt>
<trkpt lat="31.66916" lon="34.93622">
<ele>311</ele>
<time>2021-04-08T01:43:52Z</time></trkpt>
<trkpt lat="31.66891" lon="34.93579">
<ele>312</ele>
<time>2021-04-08T01:44:00Z</time></trkpt>
<trkpt lat="31.6687" lon="34.93551">
<ele>310</ele>
<time>2021-04-08T01:44:07Z</time></trkpt>
<trkpt lat="31.66857" lon="34.93539">
<ele>311</ele>
<time>2021-04-08T01:44:10Z</time></trkpt>
<trkpt lat="31.66801" lon="34.93498">
<ele>311</ele>
<time>2021-04-08T01:44:23Z</time></trkpt>
<trkpt lat="31.66785" lon="34.9349">
<ele>311</ele>
<time>2021-04-08T01:44:27Z</time></trkpt>
<trkpt lat="31.66785" lon="34.93489">
<ele>311</ele>
<time>2021-04-08T01:44:27Z</time></trkpt>
<trkpt lat="31.66767" lon="34.9348">
<ele>311</ele>
<time>2021-04-08T01:44:31Z</time></trkpt>
<trkpt lat="31.66758" lon="34.93477">
<ele>311</ele>
<time>2021-04-08T01:44:33Z</time></trkpt>
<trkpt lat="31.66737" lon="34.93478">
<ele>312</ele>
<time>2021-04-08T01:44:37Z</time></trkpt>
<trkpt lat="31.66722" lon="34.93483">
<ele>312</ele>
<time>2021-04-08T01:44:40Z</time></trkpt>
<trkpt lat="31.6667" lon="34.93507">
<ele>313</ele>
<time>2021-04-08T01:44:51Z</time></trkpt>
<trkpt lat="31.66627" lon="34.93531">
<ele>312</ele>
<time>2021-04-08T01:45:01Z</time></trkpt>
<trkpt lat="31.66628" lon="34.93531">
<ele>312</ele>
<time>2021-04-08T01:45:01Z</time></trkpt>
<trkpt lat="31.66624" lon="34.93534">
<ele>312</ele>
<time>2021-04-08T01:45:02Z</time></trkpt>
<trkpt lat="31.66604" lon="34.93539">
<ele>311</ele>
<time>2021-04-08T01:45:06Z</time></trkpt>
<trkpt lat="31.66596" lon="34.93545">
<ele>310</ele>
<time>2021-04-08T01:45:08Z</time></trkpt>
<trkpt lat="31.66607" lon="34.93548">
<ele>311</ele>
<time>2021-04-08T01:45:10Z</time></trkpt>
<trkpt lat="31.66615" lon="34.93568">
<ele>312</ele>
<time>2021-04-08T01:45:14Z</time></trkpt>
<trkpt lat="31.66624" lon="34.93587">
<ele>313</ele>
<time>2021-04-08T01:45:18Z</time></trkpt>
<trkpt lat="31.66657" lon="34.93628">
<ele>318</ele>
<time>2021-04-08T01:45:27Z</time></trkpt>
<trkpt lat="31.66671" lon="34.93669">
<ele>321</ele>
<time>2021-04-08T01:45:35Z</time></trkpt>
<trkpt lat="31.66666" lon="34.93693">
<ele>322</ele>
<time>2021-04-08T01:45:39Z</time></trkpt>
<trkpt lat="31.6665" lon="34.93709">
<ele>321</ele>
<time>2021-04-08T01:45:43Z</time></trkpt>
<trkpt lat="31.66621" lon="34.93726">
<ele>319</ele>
<time>2021-04-08T01:45:50Z</time></trkpt>
<trkpt lat="31.66599" lon="34.93745">
<ele>320</ele>
<time>2021-04-08T01:45:55Z</time></trkpt>
<trkpt lat="31.66541" lon="34.93799">
<ele>321</ele>
<time>2021-04-08T01:46:10Z</time></trkpt>
<trkpt lat="31.66509" lon="34.9383">
<ele>321</ele>
<time>2021-04-08T01:46:18Z</time></trkpt>
<trkpt lat="31.66492" lon="34.93846">
<ele>321</ele>
<time>2021-04-08T01:46:23Z</time></trkpt>
<trkpt lat="31.66468" lon="34.93845">
<ele>320</ele>
<time>2021-04-08T01:46:28Z</time></trkpt>
<trkpt lat="31.66444" lon="34.93856">
<ele>320</ele>
<time>2021-04-08T01:46:33Z</time></trkpt>
<trkpt lat="31.66417" lon="34.93863">
<ele>320</ele>
<time>2021-04-08T01:46:38Z</time></trkpt>
<trkpt lat="31.66393" lon="34.93836">
<ele>318</ele>
<time>2021-04-08T01:46:45Z</time></trkpt>
<trkpt lat="31.66375" lon="34.9379">
<ele>311</ele>
<time>2021-04-08T01:46:54Z</time></trkpt>
<trkpt lat="31.66345" lon="34.9372">
<ele>302</ele>
<time>2021-04-08T01:47:07Z</time></trkpt>
<trkpt lat="31.66329" lon="34.93679">
<ele>296</ele>
<time>2021-04-08T01:47:15Z</time></trkpt>
</trkseg>
</trk>
</gpx>